PWSweather.com
Personal Weather Stations
Station Observations
DL5ARK
SonnebergDE

SonnebergDE

Lat: 50.34904861, Lon: 11.18112087

Elevation: 1214

Station Type: Selfmade

http://www.sumbarg.de

High Low Average
Temperature 82.7°F28.2°C 54.4°F12.4°C 65.5°F18.6°C
Dew Point 74.9°F23.8°C 57.6°F14.2°C 63.8°F17.7°C
Winds 17.8 mph 28.6 kmh Calm Calm 4.0 mph SSW6.4 kmh SSW
Wind Gusts 17.9 mph28.8 kmh -- 4.0 mph6.4 kmh
Humidity 84% 51% 73%
Pressure 29.97 in1014.9 mb 29.70 in1005.8 mb -
Precipitation 0.02 in0.5 mm - -
Hour Temp Dew Point Humidity Winds Wind Gusts Pressure Precip Precip Rate Daily Precip Total
12:01 AM 64.3°F17.9°C 63.8°F17.7°C 75% Calm Calm -- 29.78 in1008.5 mb 0.00 in0.0 mm 0.00 in0.0 mm 0.00 in0.0 mm
12:07 AM 63.8°F17.7°C 63.9°F17.7°C 75% 0.4 mph W0.6 kmh W 0.4 mph0.6 kmh 29.78 in1008.5 mb 0.00 in0.0 mm 0.00 in0.0 mm 0.00 in0.0 mm
12:09 AM 63.8°F17.7°C 63.8°F17.7°C 75% 2.0 mph ESE3.2 kmh ESE 2.0 mph3.2 kmh 29.78 in1008.5 mb 0.00 in0.0 mm 0.00 in0.0 mm 0.00 in0.0 mm
12:10 AM 63.8°F17.7°C 63.7°F17.6°C 74% 5.8 mph ESE9.3 kmh ESE 5.8 mph9.3 kmh 29.78 in1008.5 mb 0.00 in0.0 mm 0.00 in0.0 mm 0.00 in0.0 mm
12:12 AM 63.7°F17.6°C 63.4°F17.4°C 75% 3.6 mph ESE5.8 kmh ESE 3.7 mph6.0 kmh 29.78 in1008.5 mb 0.00 in0.0 mm 0.00 in0.0 mm 0.00 in0.0 mm
12:16 AM 64.2°F17.9°C 63.5°F17.5°C 75% 6.0 mph 9.7 kmh 6.1 mph9.8 kmh 29.78 in1008.5 mb 0.00 in0.0 mm 0.00 in0.0 mm 0.00 in0.0 mm
12:19 AM 63.8°F17.7°C 63.5°F17.5°C 75% 3.2 mph ESE5.1 kmh ESE 3.3 mph5.3 kmh 29.78 in1008.5 mb 0.00 in0.0 mm 0.00 in0.0 mm 0.00 in0.0 mm
12:22 AM 63.8°F17.7°C 63.4°F17.4°C 75% 6.0 mph NE9.7 kmh NE 6.0 mph9.7 kmh 29.77 in1008.1 mb 0.00 in0.0 mm 0.00 in0.0 mm 0.00 in0.0 mm
12:25 AM 64.1°F17.8°C 63.3°F17.4°C 75% 4.5 mph NNW7.2 kmh NNW 4.5 mph7.2 kmh 29.77 in1008.1 mb 0.00 in0.0 mm 0.00 in0.0 mm 0.00 in0.0 mm
12:28 AM 64.1°F17.8°C 63.4°F17.4°C 76% 9.9 mph ENE15.9 kmh ENE 10.0 mph16.1 kmh 29.77 in1008.1 mb 0.00 in0.0 mm 0.00 in0.0 mm 0.00 in0.0 mm
12:31 AM 64.1°F17.8°C 63.4°F17.4°C 76% 3.6 mph SE5.8 kmh SE 3.7 mph6.0 kmh 29.77 in1008.1 mb 0.00 in0.0 mm 0.00 in0.0 mm 0.00 in0.0 mm
12:33 AM 64.0°F17.8°C 63.2°F17.3°C 76% 13.4 mph E21.6 kmh E 13.5 mph21.7 kmh 29.77 in1008.1 mb 0.00 in0.0 mm 0.00 in0.0 mm 0.00 in0.0 mm
12:34 AM 64.0°F17.8°C 63.2°F17.3°C 76% 7.8 mph E12.6 kmh E 7.9 mph12.7 kmh 29.76 in1007.8 mb 0.00 in0.0 mm 0.00 in0.0 mm 0.00 in0.0 mm
12:36 AM 64.0°F17.8°C 62.9°F17.2°C 76% 17.8 mph ENE28.6 kmh ENE 17.9 mph28.8 kmh 29.77 in1008.1 mb 0.00 in0.0 mm 0.00 in0.0 mm 0.00 in0.0 mm
12:37 AM 64.1°F17.8°C 63.1°F17.3°C 76% 14.5 mph NE23.3 kmh NE 15.3 mph24.6 kmh 29.77 in1008.1 mb 0.00 in0.0 mm 0.00 in0.0 mm 0.00 in0.0 mm
12:40 AM 63.8°F17.7°C 63.0°F17.2°C 76% 3.6 mph E5.8 kmh E 3.6 mph5.8 kmh 29.77 in1008.1 mb 0.00 in0.0 mm 0.00 in0.0 mm 0.00 in0.0 mm
12:42 AM 64.0°F17.8°C 62.9°F17.2°C 76% 4.9 mph ENE7.9 kmh ENE 4.9 mph7.9 kmh 29.77 in1008.1 mb 0.00 in0.0 mm 0.00 in0.0 mm 0.00 in0.0 mm
12:43 AM 64.0°F17.8°C 63.1°F17.3°C 76% 2.7 mph ESE4.3 kmh ESE 2.7 mph4.3 kmh 29.77 in1008.1 mb 0.00 in0.0 mm 0.00 in0.0 mm 0.00 in0.0 mm
12:45 AM 63.7°F17.6°C 63.0°F17.2°C 77% 3.6 mph E5.8 kmh E 3.7 mph6.0 kmh 29.77 in1008.1 mb 0.00 in0.0 mm 0.00 in0.0 mm 0.00 in0.0 mm
12:46 AM 63.7°F17.6°C 63.1°F17.3°C 77% 5.4 mph E8.7 kmh E 5.4 mph8.7 kmh 29.77 in1008.1 mb 0.00 in0.0 mm 0.00 in0.0 mm 0.00 in0.0 mm
12:51 AM 63.5°F17.5°C 63.2°F17.3°C 76% 4.9 mph ENE7.9 kmh ENE 4.9 mph7.9 kmh 29.76 in1007.8 mb 0.00 in0.0 mm 0.00 in0.0 mm 0.00 in0.0 mm
12:52 AM 63.4°F17.4°C 63.0°F17.2°C 76% 7.9 mph ENE12.7 kmh ENE 7.9 mph12.7 kmh 29.77 in1008.1 mb 0.00 in0.0 mm 0.00 in0.0 mm 0.00 in0.0 mm
12:55 AM 63.6°F17.6°C 62.7°F17.1°C 77% 4.8 mph SE7.7 kmh SE 4.9 mph7.9 kmh 29.77 in1008.1 mb 0.00 in0.0 mm 0.00 in0.0 mm 0.00 in0.0 mm
12:57 AM 63.5°F17.5°C 63.0°F17.2°C 77% 4.5 mph E7.2 kmh E 4.5 mph7.2 kmh 29.77 in1008.1 mb 0.00 in0.0 mm 0.00 in0.0 mm 0.00 in0.0 mm
12:58 AM 63.5°F17.5°C 63.0°F17.2°C 77% 5.6 mph NE9.0 kmh NE 5.6 mph9.0 kmh 29.77 in1008.1 mb 0.00 in0.0 mm 0.00 in0.0 mm 0.00 in0.0 mm
01:01 AM 63.5°F17.5°C 63.0°F17.2°C 78% 5.6 mph NNE9.0 kmh NNE 5.6 mph9.0 kmh 29.77 in1008.1 mb 0.00 in0.0 mm 0.00 in0.0 mm 0.00 in0.0 mm
01:04 AM 63.3°F17.4°C 62.9°F17.2°C 77% 7.1 mph NNW11.4 kmh NNW 7.2 mph11.6 kmh 29.77 in1008.1 mb 0.00 in0.0 mm 0.00 in0.0 mm 0.00 in0.0 mm
01:07 AM 63.3°F17.4°C 63.0°F17.2°C 78% 8.1 mph NE13.0 kmh NE 8.2 mph13.2 kmh 29.77 in1008.1 mb 0.00 in0.0 mm 0.00 in0.0 mm 0.00 in0.0 mm
01:10 AM 63.4°F17.4°C 62.7°F17.1°C 77% 4.8 mph ENE7.7 kmh ENE 4.8 mph7.7 kmh 29.77 in1008.1 mb 0.00 in0.0 mm 0.00 in0.0 mm 0.00 in0.0 mm
01:12 AM 63.5°F17.5°C 62.7°F17.1°C 78% 15.0 mph ENE24.1 kmh ENE 15.1 mph24.3 kmh 29.77 in1008.1 mb 0.00 in0.0 mm 0.00 in0.0 mm 0.00 in0.0 mm
01:13 AM 63.5°F17.5°C 62.8°F17.1°C 78% 9.3 mph E15.0 kmh E 9.4 mph15.1 kmh 29.77 in1008.1 mb 0.00 in0.0 mm 0.00 in0.0 mm 0.00 in0.0 mm
01:15 AM 63.4°F17.4°C 62.8°F17.1°C 78% 10.1 mph E16.3 kmh E 10.2 mph16.4 kmh 29.77 in1008.1 mb 0.00 in0.0 mm 0.00 in0.0 mm 0.00 in0.0 mm
01:16 AM 63.4°F17.4°C 62.8°F17.1°C 78% 6.5 mph E10.5 kmh E 6.5 mph10.5 kmh 29.77 in1008.1 mb 0.00 in0.0 mm 0.00 in0.0 mm 0.00 in0.0 mm
01:19 AM 63.2°F17.3°C 62.7°F17.1°C 78% 5.2 mph ENE8.4 kmh ENE 5.2 mph8.4 kmh 29.77 in1008.1 mb 0.00 in0.0 mm 0.00 in0.0 mm 0.00 in0.0 mm
01:21 AM 63.3°F17.4°C 62.7°F17.1°C 78% 3.2 mph NE5.1 kmh NE 3.3 mph5.3 kmh 29.77 in1008.1 mb 0.00 in0.0 mm 0.00 in0.0 mm 0.00 in0.0 mm
01:22 AM 63.3°F17.4°C 62.8°F17.1°C 78% 4.6 mph E7.4 kmh E 4.9 mph7.9 kmh 29.77 in1008.1 mb 0.00 in0.0 mm 0.00 in0.0 mm 0.00 in0.0 mm
01:24 AM 63.3°F17.4°C 62.7°F17.1°C 78% 6.1 mph E9.8 kmh E 6.1 mph9.8 kmh 29.77 in1008.1 mb 0.00 in0.0 mm 0.00 in0.0 mm 0.00 in0.0 mm
01:25 AM 63.3°F17.4°C 62.7°F17.1°C 78% 8.1 mph E13.0 kmh E 8.1 mph13.0 kmh 29.77 in1008.1 mb 0.00 in0.0 mm 0.00 in0.0 mm 0.00 in0.0 mm
01:28 AM 62.9°F17.2°C 62.7°F17.1°C 78% 4.0 mph ENE6.4 kmh ENE 4.0 mph6.4 kmh 29.77 in1008.1 mb 0.00 in0.0 mm 0.00 in0.0 mm 0.00 in0.0 mm
01:30 AM 62.9°F17.2°C 62.8°F17.1°C 78% 4.0 mph E6.4 kmh E 4.1 mph6.6 kmh 29.77 in1008.1 mb 0.00 in0.0 mm 0.00 in0.0 mm 0.00 in0.0 mm
01:31 AM 62.9°F17.2°C 62.7°F17.1°C 77% 5.0 mph NE8.0 kmh NE 5.0 mph8.0 kmh 29.77 in1008.1 mb 0.00 in0.0 mm 0.00 in0.0 mm 0.00 in0.0 mm
01:33 AM 62.8°F17.1°C 62.7°F17.1°C 78% 3.2 mph E5.1 kmh E 3.3 mph5.3 kmh 29.77 in1008.1 mb 0.00 in0.0 mm 0.00 in0.0 mm 0.00 in0.0 mm
01:34 AM 62.8°F17.1°C 62.6°F17.0°C 78% 2.3 mph E3.7 kmh E 2.4 mph3.9 kmh 29.77 in1008.1 mb 0.00 in0.0 mm 0.00 in0.0 mm 0.00 in0.0 mm
01:37 AM 62.7°F17.1°C 63.0°F17.2°C 78% 5.6 mph ENE9.0 kmh ENE 5.6 mph9.0 kmh 29.77 in1008.1 mb 0.00 in0.0 mm 0.00 in0.0 mm 0.00 in0.0 mm
01:40 AM 62.7°F17.1°C 62.6°F17.0°C 78% 2.0 mph E3.2 kmh E 2.0 mph3.2 kmh 29.78 in1008.5 mb 0.00 in0.0 mm 0.00 in0.0 mm 0.00 in0.0 mm
01:43 AM 62.6°F17.0°C 62.6°F17.0°C 77% 3.6 mph ESE5.8 kmh ESE 3.6 mph5.8 kmh 29.77 in1008.1 mb 0.00 in0.0 mm 0.00 in0.0 mm 0.00 in0.0 mm
01:46 AM 62.7°F17.1°C 62.8°F17.1°C 79% 5.3 mph E8.5 kmh E 5.3 mph8.5 kmh 29.77 in1008.1 mb 0.00 in0.0 mm 0.00 in0.0 mm 0.00 in0.0 mm
01:49 AM 62.7°F17.1°C 62.7°F17.1°C 78% 4.8 mph NE7.7 kmh NE 4.8 mph7.7 kmh 29.77 in1008.1 mb 0.00 in0.0 mm 0.00 in0.0 mm 0.00 in0.0 mm
01:52 AM 62.7°F17.1°C 62.7°F17.1°C 79% 5.6 mph NE9.0 kmh NE 5.7 mph9.2 kmh 29.77 in1008.1 mb 0.00 in0.0 mm 0.00 in0.0 mm 0.00 in0.0 mm
01:54 AM 62.5°F16.9°C 62.8°F17.1°C 79% 3.6 mph ENE5.8 kmh ENE 3.7 mph6.0 kmh 29.77 in1008.1 mb 0.00 in0.0 mm 0.00 in0.0 mm 0.00 in0.0 mm
01:55 AM 62.5°F16.9°C 62.9°F17.2°C 79% 4.2 mph E6.8 kmh E 4.2 mph6.8 kmh 29.77 in1008.1 mb 0.00 in0.0 mm 0.00 in0.0 mm 0.00 in0.0 mm
01:58 AM 62.5°F16.9°C 62.9°F17.2°C 79% 14.3 mph NE23.0 kmh NE 14.4 mph23.2 kmh 29.77 in1008.1 mb 0.00 in0.0 mm 0.00 in0.0 mm 0.00 in0.0 mm
02:01 AM 62.7°F17.1°C 62.5°F16.9°C 80% 13.3 mph NE21.4 kmh NE 13.3 mph21.4 kmh 29.77 in1008.1 mb 0.00 in0.0 mm 0.00 in0.0 mm 0.00 in0.0 mm
02:04 AM 62.6°F17.0°C 62.8°F17.1°C 80% 4.0 mph E6.4 kmh E 4.1 mph6.6 kmh 29.77 in1008.1 mb 0.00 in0.0 mm 0.00 in0.0 mm 0.00 in0.0 mm
02:06 AM 62.5°F16.9°C 62.3°F16.8°C 78% 6.1 mph NNE9.8 kmh NNE 6.1 mph9.8 kmh 29.77 in1008.1 mb 0.00 in0.0 mm 0.00 in0.0 mm 0.00 in0.0 mm
02:07 AM 62.5°F16.9°C 62.6°F17.0°C 79% 7.3 mph E11.7 kmh E 7.3 mph11.7 kmh 29.77 in1008.1 mb 0.00 in0.0 mm 0.00 in0.0 mm 0.00 in0.0 mm
02:09 AM 62.7°F17.1°C 62.4°F16.9°C 79% 2.4 mph NE3.9 kmh NE 2.4 mph3.9 kmh 29.77 in1008.1 mb 0.00 in0.0 mm 0.00 in0.0 mm 0.00 in0.0 mm
02:10 AM 62.6°F17.0°C 62.7°F17.1°C 79% 2.8 mph E4.5 kmh E 2.8 mph4.5 kmh 29.77 in1008.1 mb 0.00 in0.0 mm 0.00 in0.0 mm 0.00 in0.0 mm
02:13 AM 62.5°F16.9°C 62.5°F16.9°C 79% 11.9 mph NNE19.2 kmh NNE 12.0 mph19.3 kmh 29.77 in1008.1 mb 0.00 in0.0 mm 0.00 in0.0 mm 0.00 in0.0 mm
02:16 AM 62.4°F16.9°C 62.4°F16.9°C 79% 4.8 mph E7.7 kmh E 4.8 mph7.7 kmh 29.77 in1008.1 mb 0.00 in0.0 mm 0.00 in0.0 mm 0.00 in0.0 mm
02:18 AM 62.3°F16.8°C 62.4°F16.9°C 79% 8.1 mph SE13.0 kmh SE 8.1 mph13.0 kmh 29.77 in1008.1 mb 0.00 in0.0 mm 0.00 in0.0 mm 0.00 in0.0 mm
02:19 AM 62.3°F16.8°C 62.7°F17.1°C 79% 3.7 mph 6.0 kmh 3.7 mph6.0 kmh 29.77 in1008.1 mb 0.00 in0.0 mm 0.00 in0.0 mm 0.00 in0.0 mm
02:21 AM 62.3°F16.8°C 62.2°F16.8°C 79% 8.1 mph E13.0 kmh E 8.2 mph13.2 kmh 29.77 in1008.1 mb 0.00 in0.0 mm 0.00 in0.0 mm 0.00 in0.0 mm
02:22 AM 62.4°F16.9°C 62.6°F17.0°C 79% 4.7 mph E7.6 kmh E 4.9 mph7.9 kmh 29.77 in1008.1 mb 0.00 in0.0 mm 0.00 in0.0 mm 0.00 in0.0 mm
02:25 AM 62.2°F16.8°C 62.2°F16.8°C 79% 5.7 mph NE9.2 kmh NE 5.7 mph9.2 kmh 29.77 in1008.1 mb 0.00 in0.0 mm 0.00 in0.0 mm 0.00 in0.0 mm
02:27 AM 62.3°F16.8°C 62.4°F16.9°C 79% 4.4 mph E7.1 kmh E 4.4 mph7.1 kmh 29.77 in1008.1 mb 0.00 in0.0 mm 0.00 in0.0 mm 0.00 in0.0 mm
02:28 AM 62.3°F16.8°C 62.2°F16.8°C 79% 3.7 mph E6.0 kmh E 3.8 mph6.1 kmh 29.76 in1007.8 mb 0.00 in0.0 mm 0.00 in0.0 mm 0.00 in0.0 mm
02:31 AM 62.2°F16.8°C 62.3°F16.8°C 79% 4.0 mph NNW6.4 kmh NNW 4.0 mph6.4 kmh 29.75 in1007.5 mb 0.00 in0.0 mm 0.00 in0.0 mm 0.00 in0.0 mm
02:34 AM 62.2°F16.8°C 62.4°F16.9°C 79% 4.4 mph E7.1 kmh E 4.5 mph7.2 kmh 29.76 in1007.8 mb 0.00 in0.0 mm 0.00 in0.0 mm 0.00 in0.0 mm
02:40 AM 62.3°F16.8°C 62.1°F16.7°C 78% 10.7 mph NE17.2 kmh NE 10.7 mph17.2 kmh 29.75 in1007.5 mb 0.00 in0.0 mm 0.00 in0.0 mm 0.00 in0.0 mm
02:43 AM 62.2°F16.8°C 62.3°F16.8°C 78% 5.3 mph E8.5 kmh E 5.3 mph8.5 kmh 29.75 in1007.5 mb 0.00 in0.0 mm 0.00 in0.0 mm 0.00 in0.0 mm
02:45 AM 62.4°F16.9°C 61.9°F16.6°C 78% 6.1 mph E9.8 kmh E 6.1 mph9.8 kmh 29.75 in1007.5 mb 0.00 in0.0 mm 0.00 in0.0 mm 0.00 in0.0 mm
02:46 AM 62.4°F16.9°C 62.1°F16.7°C 78% 8.1 mph E13.0 kmh E 8.2 mph13.2 kmh 29.75 in1007.5 mb 0.00 in0.0 mm 0.00 in0.0 mm 0.00 in0.0 mm
02:49 AM 62.3°F16.8°C 62.0°F16.7°C 78% 4.0 mph NNW6.4 kmh NNW 4.1 mph6.6 kmh 29.75 in1007.5 mb 0.00 in0.0 mm 0.00 in0.0 mm 0.00 in0.0 mm
02:51 AM 62.3°F16.8°C 61.8°F16.6°C 78% 4.9 mph E7.9 kmh E 4.9 mph7.9 kmh 29.75 in1007.5 mb 0.00 in0.0 mm 0.00 in0.0 mm 0.00 in0.0 mm
02:52 AM 62.3°F16.8°C 61.9°F16.6°C 78% 4.2 mph E6.8 kmh E 4.2 mph6.8 kmh 29.75 in1007.5 mb 0.00 in0.0 mm 0.00 in0.0 mm 0.00 in0.0 mm
02:55 AM 62.3°F16.8°C 61.5°F16.4°C 78% 6.5 mph E10.5 kmh E 6.5 mph10.5 kmh 29.75 in1007.5 mb 0.00 in0.0 mm 0.00 in0.0 mm 0.00 in0.0 mm
02:58 AM 61.9°F16.6°C 61.9°F16.6°C 78% 3.6 mph NNW5.8 kmh NNW 3.6 mph5.8 kmh 29.75 in1007.5 mb 0.00 in0.0 mm 0.00 in0.0 mm 0.00 in0.0 mm
03:01 AM 61.9°F16.6°C 61.9°F16.6°C 79% 2.8 mph NE4.5 kmh NE 2.8 mph4.5 kmh 29.75 in1007.5 mb 0.00 in0.0 mm 0.00 in0.0 mm 0.00 in0.0 mm
03:04 AM 61.8°F16.6°C 62.0°F16.7°C 79% 5.2 mph E8.4 kmh E 5.2 mph8.4 kmh 29.74 in1007.1 mb 0.00 in0.0 mm 0.00 in0.0 mm 0.00 in0.0 mm
03:07 AM 61.7°F16.5°C 62.0°F16.7°C 79% 3.6 mph NNW5.8 kmh NNW 3.6 mph5.8 kmh 29.75 in1007.5 mb 0.00 in0.0 mm 0.00 in0.0 mm 0.00 in0.0 mm
03:10 AM 61.8°F16.6°C 62.1°F16.7°C 79% 3.6 mph E5.8 kmh E 3.7 mph6.0 kmh 29.75 in1007.5 mb 0.00 in0.0 mm 0.00 in0.0 mm 0.00 in0.0 mm
03:13 AM 61.7°F16.5°C 61.9°F16.6°C 79% 6.1 mph NNW9.8 kmh NNW 6.1 mph9.8 kmh 29.75 in1007.5 mb 0.00 in0.0 mm 0.00 in0.0 mm 0.00 in0.0 mm
03:16 AM 61.6°F16.4°C 62.1°F16.7°C 80% 2.8 mph SE4.5 kmh SE 2.8 mph4.5 kmh 29.76 in1007.8 mb 0.00 in0.0 mm 0.00 in0.0 mm 0.00 in0.0 mm
03:19 AM 61.6°F16.4°C 62.2°F16.8°C 80% 4.0 mph ENE6.4 kmh ENE 4.0 mph6.4 kmh 29.76 in1007.8 mb 0.00 in0.0 mm 0.00 in0.0 mm 0.00 in0.0 mm
03:22 AM 61.7°F16.5°C 62.3°F16.8°C 81% 10.1 mph ESE16.3 kmh ESE 10.2 mph16.4 kmh 29.75 in1007.5 mb 0.00 in0.0 mm 0.00 in0.0 mm 0.00 in0.0 mm
03:25 AM 61.8°F16.6°C 62.2°F16.8°C 81% 1.6 mph ESE2.6 kmh ESE 1.6 mph2.6 kmh 29.76 in1007.8 mb 0.00 in0.0 mm 0.00 in0.0 mm 0.00 in0.0 mm
03:27 AM 61.7°F16.5°C 62.1°F16.7°C 80% 4.0 mph ESE6.4 kmh ESE 4.1 mph6.6 kmh 29.76 in1007.8 mb 0.00 in0.0 mm 0.00 in0.0 mm 0.00 in0.0 mm
03:28 AM 61.8°F16.6°C 62.2°F16.8°C 80% 4.7 mph ESE7.6 kmh ESE 4.7 mph7.6 kmh 29.76 in1007.8 mb 0.00 in0.0 mm 0.00 in0.0 mm 0.00 in0.0 mm
03:31 AM 61.7°F16.5°C 62.1°F16.7°C 80% 4.4 mph E7.1 kmh E 4.4 mph7.1 kmh 29.75 in1007.5 mb 0.00 in0.0 mm 0.00 in0.0 mm 0.00 in0.0 mm
03:34 AM 61.7°F16.5°C 62.0°F16.7°C 80% 3.2 mph ENE5.1 kmh ENE 3.2 mph5.1 kmh 29.75 in1007.5 mb 0.00 in0.0 mm 0.00 in0.0 mm 0.00 in0.0 mm
03:37 AM 61.8°F16.6°C 62.1°F16.7°C 80% 4.0 mph NNE6.4 kmh NNE 4.1 mph6.6 kmh 29.75 in1007.5 mb 0.00 in0.0 mm 0.00 in0.0 mm 0.00 in0.0 mm
03:39 AM 61.8°F16.6°C 62.4°F16.9°C 81% 7.3 mph ENE11.7 kmh ENE 7.4 mph11.9 kmh 29.75 in1007.5 mb 0.00 in0.0 mm 0.00 in0.0 mm 0.00 in0.0 mm
03:40 AM 61.8°F16.6°C 62.3°F16.8°C 81% 4.3 mph ENE6.9 kmh ENE 4.5 mph7.2 kmh 29.75 in1007.5 mb 0.00 in0.0 mm 0.00 in0.0 mm 0.00 in0.0 mm
03:42 AM 61.9°F16.6°C 62.4°F16.9°C 81% 1.6 mph ESE2.6 kmh ESE 1.6 mph2.6 kmh 29.75 in1007.5 mb 0.00 in0.0 mm 0.00 in0.0 mm 0.00 in0.0 mm
03:43 AM 61.9°F16.6°C 62.3°F16.8°C 80% 2.8 mph ESE4.5 kmh ESE 2.8 mph4.5 kmh 29.75 in1007.5 mb 0.00 in0.0 mm 0.00 in0.0 mm 0.00 in0.0 mm
03:45 AM 61.5°F16.4°C 62.5°F16.9°C 80% 2.0 mph E3.2 kmh E 2.0 mph3.2 kmh 29.75 in1007.5 mb 0.00 in0.0 mm 0.00 in0.0 mm 0.00 in0.0 mm
03:46 AM 61.6°F16.4°C 62.2°F16.8°C 80% 3.0 mph SE4.8 kmh SE 3.0 mph4.8 kmh 29.75 in1007.5 mb 0.00 in0.0 mm 0.00 in0.0 mm 0.00 in0.0 mm
03:49 AM 61.0°F16.1°C 62.1°F16.7°C 80% 1.6 mph ENE2.6 kmh ENE 1.6 mph2.6 kmh 29.75 in1007.5 mb 0.00 in0.0 mm 0.00 in0.0 mm 0.00 in0.0 mm
03:51 AM 61.5°F16.4°C 62.2°F16.8°C 80% 8.1 mph SE13.0 kmh SE 8.2 mph13.2 kmh 29.75 in1007.5 mb 0.00 in0.0 mm 0.00 in0.0 mm 0.00 in0.0 mm
03:52 AM 61.6°F16.4°C 61.9°F16.6°C 80% 4.1 mph SE6.6 kmh SE 4.4 mph7.1 kmh 29.75 in1007.5 mb 0.00 in0.0 mm 0.00 in0.0 mm 0.00 in0.0 mm
03:55 AM 61.6°F16.4°C 62.3°F16.8°C 81% 8.0 mph NNW12.9 kmh NNW 8.0 mph12.9 kmh 29.75 in1007.5 mb 0.00 in0.0 mm 0.00 in0.0 mm 0.00 in0.0 mm
03:57 AM 61.4°F16.3°C 62.2°F16.8°C 81% 2.8 mph E4.5 kmh E 2.9 mph4.7 kmh 29.75 in1007.5 mb 0.00 in0.0 mm 0.00 in0.0 mm 0.00 in0.0 mm
03:58 AM 61.4°F16.3°C 62.1°F16.7°C 81% 4.9 mph E7.9 kmh E 4.9 mph7.9 kmh 29.75 in1007.5 mb 0.00 in0.0 mm 0.00 in0.0 mm 0.00 in0.0 mm
04:01 AM 61.5°F16.4°C 62.1°F16.7°C 82% 8.0 mph ESE12.9 kmh ESE 8.2 mph13.2 kmh 29.76 in1007.8 mb 0.00 in0.0 mm 0.00 in0.0 mm 0.00 in0.0 mm
04:03 AM 61.5°F16.4°C 62.3°F16.8°C 81% 6.5 mph ESE10.5 kmh ESE 6.5 mph10.5 kmh 29.76 in1007.8 mb 0.00 in0.0 mm 0.00 in0.0 mm 0.00 in0.0 mm
04:04 AM 61.6°F16.4°C 62.2°F16.8°C 81% 13.6 mph ESE21.9 kmh ESE 13.6 mph21.9 kmh 29.75 in1007.5 mb 0.00 in0.0 mm 0.00 in0.0 mm 0.00 in0.0 mm
04:06 AM 61.6°F16.4°C 62.3°F16.8°C 82% 2.4 mph ESE3.9 kmh ESE 2.4 mph3.9 kmh 29.75 in1007.5 mb 0.00 in0.0 mm 0.00 in0.0 mm 0.00 in0.0 mm
04:07 AM 61.6°F16.4°C 62.2°F16.8°C 82% 4.3 mph ESE6.9 kmh ESE 4.3 mph6.9 kmh 29.75 in1007.5 mb 0.00 in0.0 mm 0.00 in0.0 mm 0.00 in0.0 mm
04:09 AM 61.7°F16.5°C 62.2°F16.8°C 81% 2.8 mph SE4.5 kmh SE 2.8 mph4.5 kmh 29.75 in1007.5 mb 0.00 in0.0 mm 0.00 in0.0 mm 0.00 in0.0 mm
04:10 AM 61.7°F16.5°C 62.1°F16.7°C 81% 2.8 mph SE4.5 kmh SE 2.8 mph4.5 kmh 29.75 in1007.5 mb 0.00 in0.0 mm 0.00 in0.0 mm 0.00 in0.0 mm
04:13 AM 61.7°F16.5°C 62.2°F16.8°C 80% 4.0 mph NNW6.4 kmh NNW 4.0 mph6.4 kmh 29.75 in1007.5 mb 0.00 in0.0 mm 0.00 in0.0 mm 0.00 in0.0 mm
04:16 AM 61.6°F16.4°C 62.3°F16.8°C 82% 4.0 mph SE6.4 kmh SE 4.1 mph6.6 kmh 29.75 in1007.5 mb 0.00 in0.0 mm 0.00 in0.0 mm 0.00 in0.0 mm
04:19 AM 61.9°F16.6°C 61.9°F16.6°C 81% 5.6 mph ESE9.0 kmh ESE 5.7 mph9.2 kmh 29.75 in1007.5 mb 0.00 in0.0 mm 0.00 in0.0 mm 0.00 in0.0 mm
04:22 AM 61.6°F16.4°C 62.5°F16.9°C 82% 4.4 mph ESE7.1 kmh ESE 4.5 mph7.2 kmh 29.75 in1007.5 mb 0.00 in0.0 mm 0.00 in0.0 mm 0.00 in0.0 mm
04:25 AM 61.9°F16.6°C 62.5°F16.9°C 82% 3.2 mph ESE5.1 kmh ESE 3.3 mph5.3 kmh 29.75 in1007.5 mb 0.00 in0.0 mm 0.00 in0.0 mm 0.00 in0.0 mm
04:27 AM 61.9°F16.6°C 62.4°F16.9°C 82% 2.0 mph SE3.2 kmh SE 2.0 mph3.2 kmh 29.75 in1007.5 mb 0.00 in0.0 mm 0.00 in0.0 mm 0.00 in0.0 mm
04:28 AM 62.0°F16.7°C 62.5°F16.9°C 82% 1.6 mph ESE2.6 kmh ESE 1.7 mph2.7 kmh 29.76 in1007.8 mb 0.00 in0.0 mm 0.00 in0.0 mm 0.00 in0.0 mm
04:31 AM 62.0°F16.7°C 62.4°F16.9°C 82% 5.2 mph SSE8.4 kmh SSE 5.2 mph8.4 kmh 29.76 in1007.8 mb 0.00 in0.0 mm 0.00 in0.0 mm 0.00 in0.0 mm
04:34 AM 62.0°F16.7°C 62.2°F16.8°C 82% 5.2 mph NNW8.4 kmh NNW 5.2 mph8.4 kmh 29.75 in1007.5 mb 0.00 in0.0 mm 0.00 in0.0 mm 0.00 in0.0 mm
04:37 AM 62.2°F16.8°C 62.4°F16.9°C 83% 11.5 mph ESE18.5 kmh ESE 11.5 mph18.5 kmh 29.75 in1007.5 mb 0.00 in0.0 mm 0.00 in0.0 mm 0.00 in0.0 mm
04:39 AM 61.8°F16.6°C 62.3°F16.8°C 82% 4.0 mph NE6.4 kmh NE 4.1 mph6.6 kmh 29.75 in1007.5 mb 0.00 in0.0 mm 0.00 in0.0 mm 0.00 in0.0 mm
04:40 AM 62.3°F16.8°C 62.5°F16.9°C 83% 5.4 mph NE8.7 kmh NE 5.4 mph8.7 kmh 29.75 in1007.5 mb 0.00 in0.0 mm 0.00 in0.0 mm 0.00 in0.0 mm
04:42 AM 62.3°F16.8°C 62.5°F16.9°C 83% 7.7 mph SE12.4 kmh SE 7.7 mph12.4 kmh 29.75 in1007.5 mb 0.00 in0.0 mm 0.00 in0.0 mm 0.00 in0.0 mm
04:43 AM 62.3°F16.8°C 62.7°F17.1°C 83% 5.6 mph SE9.0 kmh SE 5.6 mph9.0 kmh 29.75 in1007.5 mb 0.00 in0.0 mm 0.00 in0.0 mm 0.00 in0.0 mm
04:45 AM 62.0°F16.7°C 62.4°F16.9°C 82% 4.0 mph ESE6.4 kmh ESE 4.1 mph6.6 kmh 29.75 in1007.5 mb 0.00 in0.0 mm 0.00 in0.0 mm 0.00 in0.0 mm
04:46 AM 62.5°F16.9°C 62.2°F16.8°C 82% 2.8 mph ESE4.5 kmh ESE 2.8 mph4.5 kmh 29.74 in1007.1 mb 0.00 in0.0 mm 0.00 in0.0 mm 0.00 in0.0 mm
04:48 AM 62.3°F16.8°C 62.1°F16.7°C 82% 5.2 mph NNE8.4 kmh NNE 5.3 mph8.5 kmh 29.74 in1007.1 mb 0.00 in0.0 mm 0.00 in0.0 mm 0.00 in0.0 mm
04:49 AM 62.4°F16.9°C 62.2°F16.8°C 82% 5.6 mph E9.0 kmh E 5.7 mph9.2 kmh 29.74 in1007.1 mb 0.00 in0.0 mm 0.00 in0.0 mm 0.00 in0.0 mm
04:51 AM 62.0°F16.7°C 62.6°F17.0°C 82% 6.1 mph SE9.8 kmh SE 6.1 mph9.8 kmh 29.74 in1007.1 mb 0.00 in0.0 mm 0.00 in0.0 mm 0.00 in0.0 mm
04:52 AM 62.3°F16.8°C 62.5°F16.9°C 82% 9.3 mph ESE15.0 kmh ESE 9.6 mph15.4 kmh 29.74 in1007.1 mb 0.00 in0.0 mm 0.00 in0.0 mm 0.00 in0.0 mm
04:55 AM 62.3°F16.8°C 62.8°F17.1°C 82% 1.6 mph E2.6 kmh E 1.6 mph2.6 kmh 29.74 in1007.1 mb 0.00 in0.0 mm 0.00 in0.0 mm 0.00 in0.0 mm
04:58 AM 62.4°F16.9°C 62.5°F16.9°C 82% 7.7 mph E12.4 kmh E 7.8 mph12.6 kmh 29.75 in1007.5 mb 0.00 in0.0 mm 0.00 in0.0 mm 0.00 in0.0 mm
05:01 AM 62.5°F16.9°C 62.7°F17.1°C 82% 4.7 mph ESE7.6 kmh ESE 4.8 mph7.7 kmh 29.75 in1007.5 mb 0.00 in0.0 mm 0.00 in0.0 mm 0.00 in0.0 mm
05:04 AM 62.5°F16.9°C 62.7°F17.1°C 82% 2.8 mph NNE4.5 kmh NNE 2.8 mph4.5 kmh 29.75 in1007.5 mb 0.00 in0.0 mm 0.00 in0.0 mm 0.00 in0.0 mm
05:07 AM 62.0°F16.7°C 62.7°F17.1°C 82% 3.2 mph SE5.1 kmh SE 3.3 mph5.3 kmh 29.75 in1007.5 mb 0.00 in0.0 mm 0.00 in0.0 mm 0.00 in0.0 mm
05:10 AM 62.4°F16.9°C 62.8°F17.1°C 82% 6.5 mph ESE10.5 kmh ESE 6.5 mph10.5 kmh 29.75 in1007.5 mb 0.00 in0.0 mm 0.00 in0.0 mm 0.00 in0.0 mm
05:13 AM 62.6°F17.0°C 62.9°F17.2°C 82% 5.2 mph ESE8.4 kmh ESE 5.2 mph8.4 kmh 29.75 in1007.5 mb 0.00 in0.0 mm 0.00 in0.0 mm 0.00 in0.0 mm
05:16 AM 62.4°F16.9°C 63.2°F17.3°C 82% 2.4 mph SE3.9 kmh SE 2.4 mph3.9 kmh 29.74 in1007.1 mb 0.00 in0.0 mm 0.00 in0.0 mm 0.00 in0.0 mm
05:18 AM 62.7°F17.1°C 62.9°F17.2°C 82% 2.4 mph ESE3.9 kmh ESE 2.4 mph3.9 kmh 29.74 in1007.1 mb 0.00 in0.0 mm 0.00 in0.0 mm 0.00 in0.0 mm
05:19 AM 62.8°F17.1°C 62.8°F17.1°C 81% 3.0 mph ESE4.8 kmh ESE 3.1 mph5.0 kmh 29.74 in1007.1 mb 0.00 in0.0 mm 0.00 in0.0 mm 0.00 in0.0 mm
05:22 AM 62.7°F17.1°C 62.9°F17.2°C 82% 0.4 mph E0.6 kmh E 0.4 mph0.6 kmh 29.74 in1007.1 mb 0.00 in0.0 mm 0.00 in0.0 mm 0.00 in0.0 mm
05:25 AM 63.1°F17.3°C 63.1°F17.3°C 82% 4.8 mph SE7.7 kmh SE 4.8 mph7.7 kmh 29.74 in1007.1 mb 0.00 in0.0 mm 0.00 in0.0 mm 0.00 in0.0 mm
05:27 AM 63.7°F17.6°C 63.4°F17.4°C 82% 4.0 mph SE6.4 kmh SE 4.1 mph6.6 kmh 29.74 in1007.1 mb 0.00 in0.0 mm 0.00 in0.0 mm 0.00 in0.0 mm
05:28 AM 64.0°F17.8°C 63.3°F17.4°C 82% 4.2 mph ESE6.8 kmh ESE 4.4 mph7.1 kmh 29.74 in1007.1 mb 0.00 in0.0 mm 0.00 in0.0 mm 0.00 in0.0 mm
05:31 AM 63.8°F17.7°C 63.5°F17.5°C 82% 0.8 mph NE1.3 kmh NE 0.8 mph1.3 kmh 29.75 in1007.5 mb 0.00 in0.0 mm 0.00 in0.0 mm 0.00 in0.0 mm
05:33 AM 64.7°F18.2°C 63.7°F17.6°C 81% 1.2 mph SE1.9 kmh SE 1.2 mph1.9 kmh 29.75 in1007.5 mb 0.00 in0.0 mm 0.00 in0.0 mm 0.00 in0.0 mm
05:34 AM 64.9°F18.3°C 63.5°F17.5°C 81% 1.8 mph SE2.9 kmh SE 1.8 mph2.9 kmh 29.74 in1007.1 mb 0.00 in0.0 mm 0.00 in0.0 mm 0.00 in0.0 mm
05:36 AM 65.2°F18.4°C 63.5°F17.5°C 79% 4.0 mph ESE6.4 kmh ESE 4.1 mph6.6 kmh 29.75 in1007.5 mb 0.00 in0.0 mm 0.00 in0.0 mm 0.00 in0.0 mm
05:37 AM 65.2°F18.4°C 63.5°F17.5°C 79% 3.2 mph SE5.1 kmh SE 3.3 mph5.3 kmh 29.75 in1007.5 mb 0.00 in0.0 mm 0.00 in0.0 mm 0.00 in0.0 mm
05:39 AM 65.5°F18.6°C 63.2°F17.3°C 78% 2.8 mph SE4.5 kmh SE 2.9 mph4.7 kmh 29.75 in1007.5 mb 0.00 in0.0 mm 0.00 in0.0 mm 0.00 in0.0 mm
05:40 AM 65.5°F18.6°C 63.4°F17.4°C 79% 4.1 mph SE6.6 kmh SE 4.1 mph6.6 kmh 29.74 in1007.1 mb 0.00 in0.0 mm 0.00 in0.0 mm 0.00 in0.0 mm
05:43 AM 64.9°F18.3°C 63.0°F17.2°C 78% 4.8 mph NE7.7 kmh NE 4.9 mph7.9 kmh 29.74 in1007.1 mb 0.00 in0.0 mm 0.00 in0.0 mm 0.00 in0.0 mm
05:46 AM 66.0°F18.9°C 64.0°F17.8°C 78% 3.6 mph SSE5.8 kmh SSE 3.6 mph5.8 kmh 29.73 in1006.8 mb 0.00 in0.0 mm 0.00 in0.0 mm 0.00 in0.0 mm
05:49 AM 66.5°F19.2°C 64.5°F18.1°C 78% 1.2 mph SE1.9 kmh SE 1.2 mph1.9 kmh 29.74 in1007.1 mb 0.00 in0.0 mm 0.00 in0.0 mm 0.00 in0.0 mm
05:51 AM 66.9°F19.4°C 63.8°F17.7°C 76% 4.0 mph ESE6.4 kmh ESE 4.1 mph6.6 kmh 29.74 in1007.1 mb 0.00 in0.0 mm 0.00 in0.0 mm 0.00 in0.0 mm
05:52 AM 66.9°F19.4°C 63.7°F17.6°C 76% 3.2 mph ESE5.1 kmh ESE 3.3 mph5.3 kmh 29.74 in1007.1 mb 0.00 in0.0 mm 0.00 in0.0 mm 0.00 in0.0 mm
05:55 AM 67.0°F19.4°C 64.4°F18.0°C 76% 2.8 mph SE4.5 kmh SE 2.9 mph4.7 kmh 29.74 in1007.1 mb 0.00 in0.0 mm 0.00 in0.0 mm 0.00 in0.0 mm
05:58 AM 66.3°F19.1°C 64.0°F17.8°C 76% 2.8 mph SE4.5 kmh SE 2.8 mph4.5 kmh 29.74 in1007.1 mb 0.00 in0.0 mm 0.00 in0.0 mm 0.00 in0.0 mm
06:01 AM 66.4°F19.1°C 63.5°F17.5°C 75% 5.0 mph NNW8.0 kmh NNW 5.0 mph8.0 kmh 29.74 in1007.1 mb 0.00 in0.0 mm 0.00 in0.0 mm 0.00 in0.0 mm
06:04 AM 66.1°F18.9°C 63.8°F17.7°C 76% 4.4 mph NNW7.1 kmh NNW 4.5 mph7.2 kmh 29.74 in1007.1 mb 0.00 in0.0 mm 0.00 in0.0 mm 0.00 in0.0 mm
06:07 AM 65.9°F18.8°C 63.9°F17.7°C 77% 7.3 mph NNW11.7 kmh NNW 7.3 mph11.7 kmh 29.75 in1007.5 mb 0.00 in0.0 mm 0.00 in0.0 mm 0.00 in0.0 mm
06:10 AM 66.0°F18.9°C 63.7°F17.6°C 77% 0.8 mph SE1.3 kmh SE 0.8 mph1.3 kmh 29.75 in1007.5 mb 0.00 in0.0 mm 0.00 in0.0 mm 0.00 in0.0 mm
06:13 AM 66.3°F19.1°C 64.1°F17.8°C 78% 0.4 mph ESE0.6 kmh ESE 0.4 mph0.6 kmh 29.75 in1007.5 mb 0.00 in0.0 mm 0.00 in0.0 mm 0.00 in0.0 mm
06:16 AM 65.6°F18.7°C 64.0°F17.8°C 78% 5.7 mph SE9.2 kmh SE 5.7 mph9.2 kmh 29.74 in1007.1 mb 0.00 in0.0 mm 0.00 in0.0 mm 0.00 in0.0 mm
06:19 AM 65.3°F18.5°C 64.0°F17.8°C 78% 3.6 mph SE5.8 kmh SE 3.7 mph6.0 kmh 29.74 in1007.1 mb 0.00 in0.0 mm 0.00 in0.0 mm 0.00 in0.0 mm
06:21 AM 65.5°F18.6°C 63.7°F17.6°C 78% 2.8 mph SE4.5 kmh SE 2.8 mph4.5 kmh 29.74 in1007.1 mb 0.00 in0.0 mm 0.00 in0.0 mm 0.00 in0.0 mm
06:22 AM 65.5°F18.6°C 64.0°F17.8°C 78% 1.4 mph SE2.3 kmh SE 1.4 mph2.3 kmh 29.74 in1007.1 mb 0.00 in0.0 mm 0.00 in0.0 mm 0.00 in0.0 mm
06:24 AM 66.4°F19.1°C 64.0°F17.8°C 78% Calm Calm -- 29.74 in1007.1 mb 0.00 in0.0 mm 0.00 in0.0 mm 0.00 in0.0 mm
06:25 AM 66.4°F19.1°C 64.3°F17.9°C 78% Calm Calm -- 29.74 in1007.1 mb 0.00 in0.0 mm 0.00 in0.0 mm 0.00 in0.0 mm
06:27 AM 66.3°F19.1°C 64.3°F17.9°C 78% 4.9 mph ESE7.9 kmh ESE 4.9 mph7.9 kmh 29.74 in1007.1 mb 0.00 in0.0 mm 0.00 in0.0 mm 0.00 in0.0 mm
06:28 AM 66.3°F19.1°C 64.3°F17.9°C 78% 5.0 mph ESE8.0 kmh ESE 5.0 mph8.0 kmh 29.74 in1007.1 mb 0.00 in0.0 mm 0.00 in0.0 mm 0.00 in0.0 mm
06:31 AM 66.7°F19.3°C 64.3°F17.9°C 79% 5.2 mph NNW8.4 kmh NNW 5.2 mph8.4 kmh 29.74 in1007.1 mb 0.00 in0.0 mm 0.00 in0.0 mm 0.00 in0.0 mm
06:34 AM 66.7°F19.3°C 64.6°F18.1°C 79% 1.6 mph SE2.6 kmh SE 1.6 mph2.6 kmh 29.74 in1007.1 mb 0.00 in0.0 mm 0.00 in0.0 mm 0.00 in0.0 mm
06:37 AM 67.7°F19.8°C 64.7°F18.2°C 79% 4.8 mph SE7.7 kmh SE 4.8 mph7.7 kmh 29.73 in1006.8 mb 0.00 in0.0 mm 0.00 in0.0 mm 0.00 in0.0 mm
06:40 AM 68.2°F20.1°C 65.0°F18.3°C 79% 2.4 mph SE3.9 kmh SE 2.4 mph3.9 kmh 29.74 in1007.1 mb 0.00 in0.0 mm 0.00 in0.0 mm 0.00 in0.0 mm
06:42 AM 68.8°F20.4°C 65.2°F18.4°C 79% 4.0 mph SE6.4 kmh SE 4.1 mph6.6 kmh 29.74 in1007.1 mb 0.00 in0.0 mm 0.00 in0.0 mm 0.00 in0.0 mm
06:43 AM 68.9°F20.5°C 65.3°F18.5°C 79% 3.3 mph SE5.3 kmh SE 3.3 mph5.3 kmh 29.74 in1007.1 mb 0.00 in0.0 mm 0.00 in0.0 mm 0.00 in0.0 mm
06:45 AM 69.5°F20.8°C 65.8°F18.8°C 79% 4.0 mph ESE6.4 kmh ESE 4.1 mph6.6 kmh 29.73 in1006.8 mb 0.00 in0.0 mm 0.00 in0.0 mm 0.00 in0.0 mm
06:46 AM 69.5°F20.8°C 65.3°F18.5°C 78% 5.9 mph ESE9.5 kmh ESE 5.9 mph9.5 kmh 29.74 in1007.1 mb 0.00 in0.0 mm 0.00 in0.0 mm 0.00 in0.0 mm
06:48 AM 70.3°F21.3°C 65.6°F18.7°C 78% 2.8 mph SE4.5 kmh SE 2.9 mph4.7 kmh 29.74 in1007.1 mb 0.00 in0.0 mm 0.00 in0.0 mm 0.00 in0.0 mm
06:49 AM 70.3°F21.3°C 65.5°F18.6°C 77% 4.4 mph SE7.1 kmh SE 4.6 mph7.4 kmh 29.74 in1007.1 mb 0.00 in0.0 mm 0.00 in0.0 mm 0.00 in0.0 mm
06:52 AM 70.8°F21.6°C 66.1°F18.9°C 78% 0.8 mph SSE1.3 kmh SSE 0.8 mph1.3 kmh 29.74 in1007.1 mb 0.00 in0.0 mm 0.00 in0.0 mm 0.00 in0.0 mm
06:55 AM 70.7°F21.5°C 66.2°F19.0°C 77% 2.8 mph SE4.5 kmh SE 2.8 mph4.5 kmh 29.74 in1007.1 mb 0.00 in0.0 mm 0.00 in0.0 mm 0.00 in0.0 mm
06:57 AM 70.7°F21.5°C 66.5°F19.2°C 77% 1.2 mph E1.9 kmh E 1.2 mph1.9 kmh 29.73 in1006.8 mb 0.00 in0.0 mm 0.00 in0.0 mm 0.00 in0.0 mm
06:58 AM 70.8°F21.6°C 66.6°F19.2°C 78% 0.9 mph E1.4 kmh E 1.0 mph1.6 kmh 29.74 in1007.1 mb 0.00 in0.0 mm 0.00 in0.0 mm 0.00 in0.0 mm
07:01 AM 71.8°F22.1°C 66.5°F19.2°C 77% 4.0 mph SE6.4 kmh SE 4.0 mph6.4 kmh 29.72 in1006.4 mb 0.00 in0.0 mm 0.00 in0.0 mm 0.00 in0.0 mm
07:03 AM 73.1°F22.8°C 67.1°F19.5°C 77% 0.4 mph SE0.6 kmh SE 0.4 mph0.6 kmh 29.73 in1006.8 mb 0.00 in0.0 mm 0.00 in0.0 mm 0.00 in0.0 mm
07:04 AM 73.1°F22.8°C 67.1°F19.5°C 77% 0.2 mph SE0.3 kmh SE 0.3 mph0.5 kmh 29.72 in1006.4 mb 0.00 in0.0 mm 0.00 in0.0 mm 0.00 in0.0 mm
07:06 AM 71.8°F22.1°C 67.0°F19.4°C 75% 0.4 mph E0.6 kmh E 0.4 mph0.6 kmh 29.72 in1006.4 mb 0.00 in0.0 mm 0.00 in0.0 mm 0.00 in0.0 mm
07:07 AM 71.9°F22.2°C 66.8°F19.3°C 75% Calm Calm -- 29.72 in1006.4 mb 0.00 in0.0 mm 0.00 in0.0 mm 0.00 in0.0 mm
07:10 AM 71.9°F22.2°C 67.2°F19.6°C 75% 0.8 mph SSE1.3 kmh SSE 0.8 mph1.3 kmh 29.72 in1006.4 mb 0.00 in0.0 mm 0.00 in0.0 mm 0.00 in0.0 mm
07:13 AM 72.8°F22.7°C 66.6°F19.2°C 72% 4.0 mph ESE6.4 kmh ESE 4.0 mph6.4 kmh 29.72 in1006.4 mb 0.00 in0.0 mm 0.00 in0.0 mm 0.00 in0.0 mm
07:16 AM 72.4°F22.4°C 67.4°F19.7°C 74% 3.2 mph SE5.1 kmh SE 3.2 mph5.1 kmh 29.72 in1006.4 mb 0.00 in0.0 mm 0.00 in0.0 mm 0.00 in0.0 mm
07:19 AM 72.5°F22.5°C 67.5°F19.7°C 73% 1.2 mph NNW1.9 kmh NNW 1.2 mph1.9 kmh 29.72 in1006.4 mb 0.00 in0.0 mm 0.00 in0.0 mm 0.00 in0.0 mm
07:22 AM 72.2°F22.3°C 67.4°F19.7°C 73% 4.0 mph NNW6.4 kmh NNW 4.0 mph6.4 kmh 29.72 in1006.4 mb 0.00 in0.0 mm 0.00 in0.0 mm 0.00 in0.0 mm
07:25 AM 71.7°F22.1°C 67.5°F19.7°C 73% 2.0 mph SE3.2 kmh SE 2.0 mph3.2 kmh 29.72 in1006.4 mb 0.00 in0.0 mm 0.00 in0.0 mm 0.00 in0.0 mm
07:27 AM 71.6°F22.0°C 67.1°F19.5°C 73% 1.6 mph E2.6 kmh E 1.6 mph2.6 kmh 29.72 in1006.4 mb 0.00 in0.0 mm 0.00 in0.0 mm 0.00 in0.0 mm
07:28 AM 71.7°F22.1°C 67.4°F19.7°C 73% 3.0 mph E4.8 kmh E 3.0 mph4.8 kmh 29.72 in1006.4 mb 0.00 in0.0 mm 0.00 in0.0 mm 0.00 in0.0 mm
07:31 AM 71.6°F22.0°C 67.0°F19.4°C 73% 6.9 mph SE11.1 kmh SE 6.9 mph11.1 kmh 29.72 in1006.4 mb 0.00 in0.0 mm 0.00 in0.0 mm 0.00 in0.0 mm
07:34 AM 71.2°F21.8°C 67.2°F19.6°C 73% 3.2 mph SE5.1 kmh SE 3.3 mph5.3 kmh 29.72 in1006.4 mb 0.00 in0.0 mm 0.00 in0.0 mm 0.00 in0.0 mm
07:36 AM 70.6°F21.4°C 67.3°F19.6°C 74% 3.6 mph SE5.8 kmh SE 3.7 mph6.0 kmh 29.72 in1006.4 mb 0.00 in0.0 mm 0.00 in0.0 mm 0.00 in0.0 mm
07:37 AM 70.6°F21.4°C 67.2°F19.6°C 74% 3.7 mph SE6.0 kmh SE 3.8 mph6.1 kmh 29.72 in1006.4 mb 0.00 in0.0 mm 0.00 in0.0 mm 0.00 in0.0 mm
07:39 AM 71.3°F21.8°C 66.9°F19.4°C 74% 2.0 mph SE3.2 kmh SE 2.0 mph3.2 kmh 29.72 in1006.4 mb 0.00 in0.0 mm 0.00 in0.0 mm 0.00 in0.0 mm
07:40 AM 71.3°F21.8°C 67.1°F19.5°C 74% 2.1 mph SE3.4 kmh SE 2.1 mph3.4 kmh 29.72 in1006.4 mb 0.00 in0.0 mm 0.00 in0.0 mm 0.00 in0.0 mm
07:42 AM 71.5°F21.9°C 67.2°F19.6°C 74% 5.3 mph ESE8.5 kmh ESE 5.3 mph8.5 kmh 29.72 in1006.4 mb 0.00 in0.0 mm 0.00 in0.0 mm 0.00 in0.0 mm
07:43 AM 71.5°F21.9°C 67.3°F19.6°C 74% 4.7 mph SE7.6 kmh SE 4.9 mph7.9 kmh 29.72 in1006.4 mb 0.00 in0.0 mm 0.00 in0.0 mm 0.00 in0.0 mm
07:46 AM 71.5°F21.9°C 67.5°F19.7°C 74% 4.0 mph SE6.4 kmh SE 4.1 mph6.6 kmh 29.72 in1006.4 mb 0.00 in0.0 mm 0.00 in0.0 mm 0.00 in0.0 mm
07:49 AM 71.7°F22.1°C 67.6°F19.8°C 74% 2.8 mph SE4.5 kmh SE 2.8 mph4.5 kmh 29.72 in1006.4 mb 0.00 in0.0 mm 0.00 in0.0 mm 0.00 in0.0 mm
07:52 AM 71.6°F22.0°C 67.2°F19.6°C 73% 6.1 mph SE9.8 kmh SE 6.1 mph9.8 kmh 29.72 in1006.4 mb 0.00 in0.0 mm 0.00 in0.0 mm 0.00 in0.0 mm
07:55 AM 71.0°F21.7°C 67.1°F19.5°C 74% 5.6 mph ESE9.0 kmh ESE 5.6 mph9.0 kmh 29.71 in1006.1 mb 0.00 in0.0 mm 0.00 in0.0 mm 0.00 in0.0 mm
07:57 AM 71.2°F21.8°C 67.4°F19.7°C 75% 4.0 mph SE6.4 kmh SE 4.1 mph6.6 kmh 29.71 in1006.1 mb 0.00 in0.0 mm 0.00 in0.0 mm 0.00 in0.0 mm
07:58 AM 71.2°F21.8°C 67.2°F19.6°C 75% 3.3 mph SE5.3 kmh SE 3.3 mph5.3 kmh 29.71 in1006.1 mb 0.00 in0.0 mm 0.00 in0.0 mm 0.00 in0.0 mm
08:01 AM 71.3°F21.8°C 67.7°F19.8°C 76% 6.5 mph NNW10.5 kmh NNW 6.5 mph10.5 kmh 29.71 in1006.1 mb 0.00 in0.0 mm 0.00 in0.0 mm 0.00 in0.0 mm
08:04 AM 71.4°F21.9°C 67.2°F19.6°C 74% 3.2 mph SE5.1 kmh SE 3.2 mph5.1 kmh 29.71 in1006.1 mb 0.00 in0.0 mm 0.00 in0.0 mm 0.00 in0.0 mm
08:07 AM 71.8°F22.1°C 68.1°F20.1°C 75% 1.6 mph NNW2.6 kmh NNW 1.6 mph2.6 kmh 29.71 in1006.1 mb 0.00 in0.0 mm 0.00 in0.0 mm 0.00 in0.0 mm
08:10 AM 71.8°F22.1°C 67.9°F19.9°C 75% 2.4 mph NNW3.9 kmh NNW 2.4 mph3.9 kmh 29.71 in1006.1 mb 0.00 in0.0 mm 0.00 in0.0 mm 0.00 in0.0 mm
08:13 AM 71.7°F22.1°C 68.0°F20.0°C 75% 4.5 mph SE7.2 kmh SE 4.5 mph7.2 kmh 29.71 in1006.1 mb 0.00 in0.0 mm 0.00 in0.0 mm 0.00 in0.0 mm
08:16 AM 71.9°F22.2°C 67.7°F19.8°C 74% 3.2 mph SE5.1 kmh SE 3.3 mph5.3 kmh 29.71 in1006.1 mb 0.00 in0.0 mm 0.00 in0.0 mm 0.00 in0.0 mm
08:18 AM 72.4°F22.4°C 68.1°F20.1°C 74% 1.6 mph SE2.6 kmh SE 1.6 mph2.6 kmh 29.71 in1006.1 mb 0.00 in0.0 mm 0.00 in0.0 mm 0.00 in0.0 mm
08:19 AM 72.4°F22.4°C 68.0°F20.0°C 75% 2.3 mph SE3.7 kmh SE 2.3 mph3.7 kmh 29.71 in1006.1 mb 0.00 in0.0 mm 0.00 in0.0 mm 0.00 in0.0 mm
08:22 AM 71.8°F22.1°C 67.9°F19.9°C 74% 5.2 mph NNW8.4 kmh NNW 5.2 mph8.4 kmh 29.71 in1006.1 mb 0.00 in0.0 mm 0.00 in0.0 mm 0.00 in0.0 mm
08:24 AM 72.1°F22.3°C 67.6°F19.8°C 73% 2.8 mph SE4.5 kmh SE 2.8 mph4.5 kmh 29.71 in1006.1 mb 0.00 in0.0 mm 0.00 in0.0 mm 0.00 in0.0 mm
08:25 AM 72.1°F22.3°C 67.6°F19.8°C 73% 2.5 mph SE4.0 kmh SE 2.5 mph4.0 kmh 29.71 in1006.1 mb 0.00 in0.0 mm 0.00 in0.0 mm 0.00 in0.0 mm
08:28 AM 72.6°F22.6°C 68.0°F20.0°C 74% 4.4 mph ESE7.1 kmh ESE 4.4 mph7.1 kmh 29.71 in1006.1 mb 0.00 in0.0 mm 0.00 in0.0 mm 0.00 in0.0 mm
08:31 AM 72.8°F22.7°C 68.3°F20.2°C 74% 2.4 mph ESE3.9 kmh ESE 2.4 mph3.9 kmh 29.72 in1006.4 mb 0.00 in0.0 mm 0.00 in0.0 mm 0.00 in0.0 mm
08:33 AM 73.3°F22.9°C 68.4°F20.2°C 74% 2.4 mph SE3.9 kmh SE 2.4 mph3.9 kmh 29.71 in1006.1 mb 0.00 in0.0 mm 0.00 in0.0 mm 0.00 in0.0 mm
08:34 AM 73.3°F22.9°C 68.6°F20.3°C 74% 2.6 mph SE4.2 kmh SE 2.6 mph4.2 kmh 29.71 in1006.1 mb 0.00 in0.0 mm 0.00 in0.0 mm 0.00 in0.0 mm
08:37 AM 74.2°F23.4°C 68.4°F20.2°C 74% 2.8 mph SE4.5 kmh SE 2.8 mph4.5 kmh 29.71 in1006.1 mb 0.00 in0.0 mm 0.00 in0.0 mm 0.00 in0.0 mm
08:40 AM 73.9°F23.3°C 68.1°F20.1°C 73% 1.6 mph SE2.6 kmh SE 1.6 mph2.6 kmh 29.71 in1006.1 mb 0.00 in0.0 mm 0.00 in0.0 mm 0.00 in0.0 mm
08:43 AM 74.1°F23.4°C 68.4°F20.2°C 73% 4.0 mph SE6.4 kmh SE 4.1 mph6.6 kmh 29.71 in1006.1 mb 0.00 in0.0 mm 0.00 in0.0 mm 0.00 in0.0 mm
08:46 AM 74.2°F23.4°C 68.5°F20.3°C 73% 2.4 mph NNW3.9 kmh NNW 2.4 mph3.9 kmh 29.71 in1006.1 mb 0.00 in0.0 mm 0.00 in0.0 mm 0.00 in0.0 mm
08:49 AM 74.2°F23.4°C 67.9°F19.9°C 72% 2.0 mph NNW3.2 kmh NNW 2.0 mph3.2 kmh 29.71 in1006.1 mb 0.00 in0.0 mm 0.00 in0.0 mm 0.00 in0.0 mm
08:52 AM 74.2°F23.4°C 68.2°F20.1°C 71% 2.4 mph ESE3.9 kmh ESE 2.4 mph3.9 kmh 29.70 in1005.8 mb 0.00 in0.0 mm 0.00 in0.0 mm 0.00 in0.0 mm
08:54 AM 75.0°F23.9°C 68.8°F20.4°C 72% 3.6 mph SE5.8 kmh SE 3.6 mph5.8 kmh 29.70 in1005.8 mb 0.00 in0.0 mm 0.00 in0.0 mm 0.00 in0.0 mm
08:55 AM 75.0°F23.9°C 68.8°F20.4°C 72% 3.5 mph SE5.6 kmh SE 3.5 mph5.6 kmh 29.70 in1005.8 mb 0.00 in0.0 mm 0.00 in0.0 mm 0.00 in0.0 mm
08:58 AM 74.3°F23.5°C 68.5°F20.3°C 71% 2.0 mph NNW3.2 kmh NNW 2.0 mph3.2 kmh 29.70 in1005.8 mb 0.00 in0.0 mm 0.00 in0.0 mm 0.00 in0.0 mm
09:01 AM 74.1°F23.4°C 68.3°F20.2°C 71% 4.3 mph SE6.9 kmh SE 4.3 mph6.9 kmh 29.71 in1006.1 mb 0.00 in0.0 mm 0.00 in0.0 mm 0.00 in0.0 mm
09:04 AM 74.6°F23.7°C 68.7°F20.4°C 72% 3.2 mph SE5.1 kmh SE 3.3 mph5.3 kmh 29.71 in1006.1 mb 0.00 in0.0 mm 0.00 in0.0 mm 0.00 in0.0 mm
09:07 AM 74.4°F23.6°C 68.4°F20.2°C 72% 2.0 mph SE3.2 kmh SE 2.0 mph3.2 kmh 29.70 in1005.8 mb 0.00 in0.0 mm 0.00 in0.0 mm 0.00 in0.0 mm
09:09 AM 74.2°F23.4°C 69.1°F20.6°C 72% 2.4 mph SE3.9 kmh SE 2.5 mph4.0 kmh 29.70 in1005.8 mb 0.00 in0.0 mm 0.00 in0.0 mm 0.00 in0.0 mm
09:10 AM 74.2°F23.4°C 68.6°F20.3°C 72% 2.3 mph SE3.7 kmh SE 2.3 mph3.7 kmh 29.70 in1005.8 mb 0.00 in0.0 mm 0.00 in0.0 mm 0.00 in0.0 mm
09:13 AM 74.3°F23.5°C 68.6°F20.3°C 72% 1.6 mph NNW2.6 kmh NNW 1.6 mph2.6 kmh 29.70 in1005.8 mb 0.00 in0.0 mm 0.00 in0.0 mm 0.00 in0.0 mm
09:16 AM 74.6°F23.7°C 68.8°F20.4°C 72% 2.8 mph SE4.5 kmh SE 2.8 mph4.5 kmh 29.70 in1005.8 mb 0.00 in0.0 mm 0.00 in0.0 mm 0.00 in0.0 mm
09:19 AM 75.1°F23.9°C 68.8°F20.4°C 71% 2.0 mph SE3.2 kmh SE 2.0 mph3.2 kmh 29.70 in1005.8 mb 0.00 in0.0 mm 0.00 in0.0 mm 0.00 in0.0 mm
09:21 AM 75.5°F24.2°C 69.5°F20.8°C 72% 1.6 mph SE2.6 kmh SE 1.6 mph2.6 kmh 29.70 in1005.8 mb 0.00 in0.0 mm 0.00 in0.0 mm 0.00 in0.0 mm
09:22 AM 75.4°F24.1°C 69.6°F20.9°C 73% 1.3 mph SE2.1 kmh SE 1.6 mph2.6 kmh 29.70 in1005.8 mb 0.00 in0.0 mm 0.00 in0.0 mm 0.00 in0.0 mm
09:25 AM 75.3°F24.1°C 69.1°F20.6°C 71% 2.0 mph SSE3.2 kmh SSE 2.0 mph3.2 kmh 29.70 in1005.8 mb 0.00 in0.0 mm 0.00 in0.0 mm 0.00 in0.0 mm
09:28 AM 75.7°F24.3°C 68.9°F20.5°C 70% 1.2 mph SSE1.9 kmh SSE 1.2 mph1.9 kmh 29.70 in1005.8 mb 0.00 in0.0 mm 0.00 in0.0 mm 0.00 in0.0 mm
09:31 AM 76.1°F24.5°C 69.3°F20.7°C 70% 0.8 mph SE1.3 kmh SE 0.8 mph1.3 kmh 29.70 in1005.8 mb 0.00 in0.0 mm 0.00 in0.0 mm 0.00 in0.0 mm
09:34 AM 77.0°F25.0°C 70.3°F21.3°C 73% 3.2 mph NNW5.1 kmh NNW 3.2 mph5.1 kmh 29.70 in1005.8 mb 0.00 in0.0 mm 0.00 in0.0 mm 0.00 in0.0 mm
09:37 AM 76.9°F24.9°C 70.3°F21.3°C 72% 6.5 mph SE10.5 kmh SE 6.5 mph10.5 kmh 29.70 in1005.8 mb 0.00 in0.0 mm 0.00 in0.0 mm 0.00 in0.0 mm
09:40 AM 77.2°F25.1°C 69.6°F20.9°C 70% 4.0 mph SE6.4 kmh SE 4.0 mph6.4 kmh 29.70 in1005.8 mb 0.00 in0.0 mm 0.00 in0.0 mm 0.00 in0.0 mm
09:43 AM 77.3°F25.2°C 69.4°F20.8°C 69% 1.2 mph SE1.9 kmh SE 1.2 mph1.9 kmh 29.70 in1005.8 mb 0.00 in0.0 mm 0.00 in0.0 mm 0.00 in0.0 mm
09:46 AM 77.9°F25.5°C 69.6°F20.9°C 69% 2.0 mph ESE3.2 kmh ESE 2.0 mph3.2 kmh 29.70 in1005.8 mb 0.00 in0.0 mm 0.00 in0.0 mm 0.00 in0.0 mm
09:48 AM 78.0°F25.6°C 70.0°F21.1°C 70% 2.8 mph SE4.5 kmh SE 2.9 mph4.7 kmh 29.70 in1005.8 mb 0.00 in0.0 mm 0.00 in0.0 mm 0.00 in0.0 mm
09:49 AM 77.9°F25.5°C 70.5°F21.4°C 70% 3.0 mph SE4.8 kmh SE 3.0 mph4.8 kmh 29.70 in1005.8 mb 0.00 in0.0 mm 0.00 in0.0 mm 0.00 in0.0 mm
09:52 AM 78.6°F25.9°C 69.8°F21.0°C 68% 0.4 mph ESE0.6 kmh ESE 0.4 mph0.6 kmh 29.70 in1005.8 mb 0.00 in0.0 mm 0.00 in0.0 mm 0.00 in0.0 mm
09:54 AM 78.6°F25.9°C 71.0°F21.7°C 71% 4.4 mph ESE7.1 kmh ESE 4.4 mph7.1 kmh 29.70 in1005.8 mb 0.00 in0.0 mm 0.00 in0.0 mm 0.00 in0.0 mm
09:55 AM 78.8°F26.0°C 70.8°F21.6°C 70% 4.4 mph ESE7.1 kmh ESE 4.6 mph7.4 kmh 29.70 in1005.8 mb 0.00 in0.0 mm 0.00 in0.0 mm 0.00 in0.0 mm
09:58 AM 79.3°F26.3°C 71.0°F21.7°C 69% 1.6 mph ESE2.6 kmh ESE 1.6 mph2.6 kmh 29.70 in1005.8 mb 0.00 in0.0 mm 0.00 in0.0 mm 0.00 in0.0 mm
10:01 AM 79.1°F26.2°C 70.6°F21.4°C 67% 0.4 mph NNW0.6 kmh NNW 0.4 mph0.6 kmh 29.70 in1005.8 mb 0.00 in0.0 mm 0.00 in0.0 mm 0.00 in0.0 mm
10:04 AM 78.9°F26.1°C 70.7°F21.5°C 67% 2.4 mph NNW3.9 kmh NNW 2.4 mph3.9 kmh 29.70 in1005.8 mb 0.00 in0.0 mm 0.00 in0.0 mm 0.00 in0.0 mm
10:07 AM 78.7°F25.9°C 70.4°F21.3°C 66% 0.4 mph ESE0.6 kmh ESE 0.4 mph0.6 kmh 29.70 in1005.8 mb 0.00 in0.0 mm 0.00 in0.0 mm 0.00 in0.0 mm
10:10 AM 78.5°F25.8°C 70.4°F21.3°C 66% 3.2 mph ESE5.1 kmh ESE 3.2 mph5.1 kmh 29.70 in1005.8 mb 0.00 in0.0 mm 0.00 in0.0 mm 0.00 in0.0 mm
10:13 AM 79.5°F26.4°C 70.5°F21.4°C 66% 1.2 mph ESE1.9 kmh ESE 1.2 mph1.9 kmh 29.70 in1005.8 mb 0.00 in0.0 mm 0.00 in0.0 mm 0.00 in0.0 mm
10:16 AM 79.6°F26.4°C 71.5°F21.9°C 66% 1.2 mph WSW1.9 kmh WSW 1.2 mph1.9 kmh 29.70 in1005.8 mb 0.00 in0.0 mm 0.00 in0.0 mm 0.00 in0.0 mm
10:18 AM 79.8°F26.6°C 72.7°F22.6°C 68% 1.6 mph WSW2.6 kmh WSW 1.6 mph2.6 kmh 29.70 in1005.8 mb 0.00 in0.0 mm 0.00 in0.0 mm 0.00 in0.0 mm
10:19 AM 79.8°F26.6°C 71.8°F22.1°C 67% 2.0 mph WSW3.2 kmh WSW 2.0 mph3.2 kmh 29.70 in1005.8 mb 0.00 in0.0 mm 0.00 in0.0 mm 0.00 in0.0 mm
10:21 AM 80.3°F26.8°C 72.7°F22.6°C 67% 1.6 mph WSW2.6 kmh WSW 1.6 mph2.6 kmh 29.70 in1005.8 mb 0.00 in0.0 mm 0.00 in0.0 mm 0.00 in0.0 mm
10:22 AM 80.3°F26.8°C 73.0°F22.8°C 67% 1.6 mph WSW2.6 kmh WSW 1.6 mph2.6 kmh 29.70 in1005.8 mb 0.00 in0.0 mm 0.00 in0.0 mm 0.00 in0.0 mm
10:25 AM 79.9°F26.6°C 73.1°F22.8°C 66% 2.4 mph WSW3.9 kmh WSW 2.4 mph3.9 kmh 29.70 in1005.8 mb 0.00 in0.0 mm 0.00 in0.0 mm 0.00 in0.0 mm
10:31 AM 80.2°F26.8°C 72.4°F22.4°C 64% 0.4 mph SE0.6 kmh SE 0.4 mph0.6 kmh 29.70 in1005.8 mb 0.00 in0.0 mm 0.00 in0.0 mm 0.00 in0.0 mm
10:33 AM 79.6°F26.4°C 72.7°F22.6°C 64% Calm Calm -- 29.70 in1005.8 mb 0.00 in0.0 mm 0.00 in0.0 mm 0.00 in0.0 mm
10:34 AM 79.6°F26.4°C 73.2°F22.9°C 64% Calm Calm -- 29.70 in1005.8 mb 0.00 in0.0 mm 0.00 in0.0 mm 0.00 in0.0 mm
10:37 AM 80.4°F26.9°C 73.1°F22.8°C 64% 1.6 mph SW2.6 kmh SW 1.6 mph2.6 kmh 29.70 in1005.8 mb 0.00 in0.0 mm 0.00 in0.0 mm 0.00 in0.0 mm
10:40 AM 80.2°F26.8°C 72.8°F22.7°C 64% Calm Calm -- 29.70 in1005.8 mb 0.00 in0.0 mm 0.00 in0.0 mm 0.00 in0.0 mm
10:46 AM 79.4°F26.3°C 73.1°F22.8°C 63% 3.2 mph SW5.1 kmh SW 3.2 mph5.1 kmh 29.70 in1005.8 mb 0.00 in0.0 mm 0.00 in0.0 mm 0.00 in0.0 mm
10:48 AM 80.4°F26.9°C 74.1°F23.4°C 64% 2.8 mph SW4.5 kmh SW 2.8 mph4.5 kmh 29.70 in1005.8 mb 0.00 in0.0 mm 0.00 in0.0 mm 0.00 in0.0 mm
10:49 AM 80.4°F26.9°C 73.3°F22.9°C 64% 2.8 mph SW4.5 kmh SW 2.8 mph4.5 kmh 29.70 in1005.8 mb 0.00 in0.0 mm 0.00 in0.0 mm 0.00 in0.0 mm
10:52 AM 81.1°F27.3°C 74.1°F23.4°C 65% 2.9 mph NNW4.7 kmh NNW 2.9 mph4.7 kmh 29.70 in1005.8 mb 0.00 in0.0 mm 0.00 in0.0 mm 0.00 in0.0 mm
10:55 AM 80.7°F27.1°C 73.9°F23.3°C 64% 3.2 mph SW5.1 kmh SW 3.2 mph5.1 kmh 29.70 in1005.8 mb 0.00 in0.0 mm 0.00 in0.0 mm 0.00 in0.0 mm
10:57 AM 80.4°F26.9°C 74.9°F23.8°C 64% 5.7 mph W9.2 kmh W 5.7 mph9.2 kmh 29.71 in1006.1 mb 0.00 in0.0 mm 0.00 in0.0 mm 0.00 in0.0 mm
10:58 AM 80.4°F26.9°C 74.6°F23.7°C 63% 4.2 mph W6.8 kmh W 4.4 mph7.1 kmh 29.70 in1005.8 mb 0.00 in0.0 mm 0.00 in0.0 mm 0.00 in0.0 mm
11:01 AM 80.5°F26.9°C 74.8°F23.8°C 63% 0.8 mph NNW1.3 kmh NNW 0.8 mph1.3 kmh 29.71 in1006.1 mb 0.00 in0.0 mm 0.00 in0.0 mm 0.00 in0.0 mm
11:07 AM 80.7°F27.1°C 74.6°F23.7°C 62% 1.1 mph NNW1.8 kmh NNW 1.2 mph1.9 kmh 29.70 in1005.8 mb 0.00 in0.0 mm 0.00 in0.0 mm 0.00 in0.0 mm
11:10 AM 80.7°F27.1°C 74.9°F23.8°C 62% 1.6 mph SW2.6 kmh SW 1.6 mph2.6 kmh 29.71 in1006.1 mb 0.00 in0.0 mm 0.00 in0.0 mm 0.00 in0.0 mm
11:13 AM 80.6°F27.0°C 74.8°F23.8°C 60% 5.2 mph NNW8.4 kmh NNW 5.2 mph8.4 kmh 29.71 in1006.1 mb 0.00 in0.0 mm 0.00 in0.0 mm 0.00 in0.0 mm
11:16 AM 80.6°F27.0°C 74.7°F23.7°C 60% 4.8 mph SW7.7 kmh SW 4.9 mph7.9 kmh 29.71 in1006.1 mb 0.00 in0.0 mm 0.00 in0.0 mm 0.00 in0.0 mm
11:19 AM 79.6°F26.4°C 73.3°F22.9°C 58% 1.2 mph NNW1.9 kmh NNW 1.2 mph1.9 kmh 29.71 in1006.1 mb 0.00 in0.0 mm 0.00 in0.0 mm 0.00 in0.0 mm
11:22 AM 80.2°F26.8°C 74.1°F23.4°C 58% 2.4 mph SW3.9 kmh SW 2.4 mph3.9 kmh 29.71 in1006.1 mb 0.00 in0.0 mm 0.00 in0.0 mm 0.00 in0.0 mm
11:25 AM 79.6°F26.4°C 73.9°F23.3°C 59% 2.4 mph SW3.9 kmh SW 2.4 mph3.9 kmh 29.71 in1006.1 mb 0.00 in0.0 mm 0.00 in0.0 mm 0.00 in0.0 mm
11:28 AM 80.7°F27.1°C 73.7°F23.2°C 59% 2.0 mph W3.2 kmh W 2.0 mph3.2 kmh 29.71 in1006.1 mb 0.00 in0.0 mm 0.00 in0.0 mm 0.00 in0.0 mm
11:30 AM 82.0°F27.8°C 73.6°F23.1°C 59% 2.8 mph W4.5 kmh W 2.9 mph4.7 kmh 29.71 in1006.1 mb 0.00 in0.0 mm 0.00 in0.0 mm 0.00 in0.0 mm
11:31 AM 82.0°F27.8°C 73.9°F23.3°C 59% 4.4 mph W7.1 kmh W 4.6 mph7.4 kmh 29.72 in1006.4 mb 0.00 in0.0 mm 0.00 in0.0 mm 0.00 in0.0 mm
11:33 AM 81.8°F27.7°C 74.0°F23.3°C 59% 3.6 mph W5.8 kmh W 3.7 mph6.0 kmh 29.72 in1006.4 mb 0.00 in0.0 mm 0.00 in0.0 mm 0.00 in0.0 mm
11:34 AM 82.0°F27.8°C 74.1°F23.4°C 59% 4.2 mph W6.8 kmh W 4.3 mph6.9 kmh 29.72 in1006.4 mb 0.00 in0.0 mm 0.00 in0.0 mm 0.00 in0.0 mm
11:37 AM 80.9°F27.2°C 73.4°F23.0°C 57% 6.1 mph NNW9.8 kmh NNW 6.1 mph9.8 kmh 29.72 in1006.4 mb 0.00 in0.0 mm 0.00 in0.0 mm 0.00 in0.0 mm
11:40 AM 81.6°F27.6°C 74.7°F23.7°C 59% 2.4 mph WNW3.9 kmh WNW 2.4 mph3.9 kmh 29.72 in1006.4 mb 0.00 in0.0 mm 0.00 in0.0 mm 0.00 in0.0 mm
11:43 AM 81.1°F27.3°C 74.7°F23.7°C 58% 4.0 mph W6.4 kmh W 4.1 mph6.6 kmh 29.72 in1006.4 mb 0.00 in0.0 mm 0.00 in0.0 mm 0.00 in0.0 mm
11:46 AM 80.8°F27.1°C 74.3°F23.5°C 57% 5.7 mph NNW9.2 kmh NNW 5.7 mph9.2 kmh 29.72 in1006.4 mb 0.00 in0.0 mm 0.00 in0.0 mm 0.00 in0.0 mm
11:48 AM 80.4°F26.9°C 72.6°F22.6°C 54% 7.7 mph NNW12.4 kmh NNW 7.7 mph12.4 kmh 29.72 in1006.4 mb 0.00 in0.0 mm 0.00 in0.0 mm 0.00 in0.0 mm
11:49 AM 80.4°F26.9°C 72.9°F22.7°C 55% 6.5 mph NW10.5 kmh NW 6.7 mph10.8 kmh 29.72 in1006.4 mb 0.00 in0.0 mm 0.00 in0.0 mm 0.00 in0.0 mm
11:52 AM 80.4°F26.9°C 74.1°F23.4°C 57% 1.6 mph W2.6 kmh W 1.6 mph2.6 kmh 29.73 in1006.8 mb 0.00 in0.0 mm 0.00 in0.0 mm 0.00 in0.0 mm
11:55 AM 80.5°F26.9°C 73.3°F22.9°C 55% 3.6 mph NW5.8 kmh NW 3.7 mph6.0 kmh 29.73 in1006.8 mb 0.00 in0.0 mm 0.00 in0.0 mm 0.00 in0.0 mm
11:58 AM 79.8°F26.6°C 74.1°F23.4°C 56% 6.4 mph WSW10.3 kmh WSW 6.4 mph10.3 kmh 29.73 in1006.8 mb 0.00 in0.0 mm 0.00 in0.0 mm 0.00 in0.0 mm
12:00 PM 81.3°F27.4°C 74.0°F23.3°C 56% 9.7 mph WNW15.6 kmh WNW 9.8 mph15.8 kmh 29.74 in1007.1 mb 0.00 in0.0 mm 0.00 in0.0 mm 0.00 in0.0 mm
12:01 PM 81.4°F27.4°C 73.6°F23.1°C 55% 5.9 mph SW9.5 kmh SW 6.3 mph10.1 kmh 29.74 in1007.1 mb 0.00 in0.0 mm 0.00 in0.0 mm 0.00 in0.0 mm
12:04 PM 81.1°F27.3°C 73.8°F23.2°C 56% 10.5 mph WNW16.9 kmh WNW 10.6 mph17.1 kmh 29.74 in1007.1 mb 0.00 in0.0 mm 0.00 in0.0 mm 0.00 in0.0 mm
12:07 PM 82.7°F28.2°C 73.8°F23.2°C 55% 8.5 mph NW13.7 kmh NW 8.6 mph13.8 kmh 29.74 in1007.1 mb 0.00 in0.0 mm 0.00 in0.0 mm 0.00 in0.0 mm
12:10 PM 81.2°F27.3°C 71.4°F21.9°C 51% 4.8 mph NNW7.7 kmh NNW 4.9 mph7.9 kmh 29.74 in1007.1 mb 0.00 in0.0 mm 0.00 in0.0 mm 0.00 in0.0 mm
12:13 PM 80.8°F27.1°C 72.3°F22.4°C 53% 4.4 mph NNW7.1 kmh NNW 4.5 mph7.2 kmh 29.74 in1007.1 mb 0.00 in0.0 mm 0.00 in0.0 mm 0.00 in0.0 mm
12:16 PM 80.4°F26.9°C 72.0°F22.2°C 54% 2.4 mph NW3.9 kmh NW 2.4 mph3.9 kmh 29.75 in1007.5 mb 0.00 in0.0 mm 0.00 in0.0 mm 0.00 in0.0 mm
12:19 PM 81.1°F27.3°C 72.9°F22.7°C 55% 6.9 mph W11.1 kmh W 6.9 mph11.1 kmh 29.75 in1007.5 mb 0.00 in0.0 mm 0.00 in0.0 mm 0.00 in0.0 mm
12:22 PM 81.3°F27.4°C 73.1°F22.8°C 55% 4.4 mph NNW7.1 kmh NNW 4.5 mph7.2 kmh 29.75 in1007.5 mb 0.00 in0.0 mm 0.00 in0.0 mm 0.00 in0.0 mm
12:24 PM 80.6°F27.0°C 72.9°F22.7°C 55% 4.9 mph 7.9 kmh 4.9 mph7.9 kmh 29.75 in1007.5 mb 0.00 in0.0 mm 0.00 in0.0 mm 0.00 in0.0 mm
12:25 PM 80.6°F27.0°C 72.2°F22.3°C 55% 3.5 mph 5.6 kmh 3.5 mph5.6 kmh 29.75 in1007.5 mb 0.00 in0.0 mm 0.00 in0.0 mm 0.00 in0.0 mm
12:28 PM 79.5°F26.4°C 72.1°F22.3°C 54% 6.0 mph NNW9.7 kmh NNW 6.0 mph9.7 kmh 29.75 in1007.5 mb 0.00 in0.0 mm 0.00 in0.0 mm 0.00 in0.0 mm
12:30 PM 78.8°F26.0°C 72.2°F22.3°C 55% 8.9 mph NW14.3 kmh NW 8.9 mph14.3 kmh 29.75 in1007.5 mb 0.00 in0.0 mm 0.00 in0.0 mm 0.00 in0.0 mm
12:31 PM 78.8°F26.0°C 72.0°F22.2°C 54% 7.7 mph NW12.4 kmh NW 7.7 mph12.4 kmh 29.75 in1007.5 mb 0.00 in0.0 mm 0.00 in0.0 mm 0.00 in0.0 mm
12:33 PM 79.0°F26.1°C 71.5°F21.9°C 55% 13.8 mph WNW22.2 kmh WNW 13.9 mph22.4 kmh 29.75 in1007.5 mb 0.00 in0.0 mm 0.00 in0.0 mm 0.00 in0.0 mm
12:34 PM 79.0°F26.1°C 70.6°F21.4°C 54% 10.3 mph W16.6 kmh W 10.3 mph16.6 kmh 29.75 in1007.5 mb 0.00 in0.0 mm 0.00 in0.0 mm 0.00 in0.0 mm
12:37 PM 78.2°F25.7°C 70.5°F21.4°C 55% 5.6 mph NNW9.0 kmh NNW 5.7 mph9.2 kmh 29.75 in1007.5 mb 0.00 in0.0 mm 0.00 in0.0 mm 0.00 in0.0 mm
12:39 PM 78.4°F25.8°C 70.9°F21.6°C 56% 6.5 mph NW10.5 kmh NW 6.5 mph10.5 kmh 29.75 in1007.5 mb 0.00 in0.0 mm 0.00 in0.0 mm 0.00 in0.0 mm
12:40 PM 78.4°F25.8°C 71.6°F22.0°C 56% 5.6 mph NW9.0 kmh NW 6.0 mph9.7 kmh 29.75 in1007.5 mb 0.00 in0.0 mm 0.00 in0.0 mm 0.00 in0.0 mm
12:42 PM 78.2°F25.7°C 72.0°F22.2°C 57% 5.3 mph NW8.5 kmh NW 5.3 mph8.5 kmh 29.76 in1007.8 mb 0.00 in0.0 mm 0.00 in0.0 mm 0.00 in0.0 mm
12:43 PM 78.2°F25.7°C 71.2°F21.8°C 58% 4.4 mph NW7.1 kmh NW 4.4 mph7.1 kmh 29.75 in1007.5 mb 0.00 in0.0 mm 0.00 in0.0 mm 0.00 in0.0 mm
12:46 PM 78.2°F25.7°C 72.0°F22.2°C 59% 7.7 mph NNW12.4 kmh NNW 7.8 mph12.6 kmh 29.76 in1007.8 mb 0.00 in0.0 mm 0.00 in0.0 mm 0.00 in0.0 mm
12:49 PM 77.5°F25.3°C 71.7°F22.1°C 59% 7.3 mph NNW11.7 kmh NNW 7.3 mph11.7 kmh 29.76 in1007.8 mb 0.00 in0.0 mm 0.00 in0.0 mm 0.00 in0.0 mm
12:52 PM 78.2°F25.7°C 72.6°F22.6°C 60% 8.1 mph NW13.0 kmh NW 8.1 mph13.0 kmh 29.77 in1008.1 mb 0.00 in0.0 mm 0.00 in0.0 mm 0.00 in0.0 mm
12:55 PM 76.2°F24.6°C 71.3°F21.8°C 60% 5.2 mph W8.4 kmh W 5.2 mph8.4 kmh 29.77 in1008.1 mb 0.00 in0.0 mm 0.00 in0.0 mm 0.00 in0.0 mm
12:58 PM 75.4°F24.1°C 71.4°F21.9°C 60% 12.3 mph NNW19.8 kmh NNW 12.3 mph19.8 kmh 29.77 in1008.1 mb 0.00 in0.0 mm 0.00 in0.0 mm 0.00 in0.0 mm
01:01 PM 75.2°F24.0°C 71.2°F21.8°C 60% 6.9 mph WNW11.1 kmh WNW 7.0 mph11.3 kmh 29.77 in1008.1 mb 0.00 in0.0 mm 0.00 in0.0 mm 0.00 in0.0 mm
01:04 PM 77.2°F25.1°C 71.4°F21.9°C 61% 9.2 mph NW14.8 kmh NW 9.2 mph14.8 kmh 29.77 in1008.1 mb 0.00 in0.0 mm 0.00 in0.0 mm 0.00 in0.0 mm
01:09 PM 76.2°F24.6°C 70.2°F21.2°C 59% 5.7 mph NW9.2 kmh NW 5.7 mph9.2 kmh 29.78 in1008.5 mb 0.00 in0.0 mm 0.00 in0.0 mm 0.00 in0.0 mm
01:10 PM 76.2°F24.6°C 69.4°F20.8°C 58% 6.5 mph NW10.5 kmh NW 6.6 mph10.6 kmh 29.78 in1008.5 mb 0.00 in0.0 mm 0.00 in0.0 mm 0.00 in0.0 mm
01:12 PM 74.8°F23.8°C 68.8°F20.4°C 58% 4.9 mph NW7.9 kmh NW 4.9 mph7.9 kmh 29.79 in1008.8 mb 0.00 in0.0 mm 0.00 in0.0 mm 0.00 in0.0 mm
01:13 PM 74.9°F23.8°C 68.3°F20.2°C 58% 10.6 mph WNW17.1 kmh WNW 10.6 mph17.1 kmh 29.79 in1008.8 mb 0.00 in0.0 mm 0.00 in0.0 mm 0.00 in0.0 mm
01:16 PM 73.1°F22.8°C 68.7°F20.4°C 58% 5.6 mph WNW9.0 kmh WNW 5.7 mph9.2 kmh 29.79 in1008.8 mb 0.00 in0.0 mm 0.00 in0.0 mm 0.00 in0.0 mm
01:19 PM 72.7°F22.6°C 67.7°F19.8°C 58% 11.1 mph 17.9 kmh 11.2 mph18.0 kmh 29.79 in1008.8 mb 0.00 in0.0 mm 0.00 in0.0 mm 0.00 in0.0 mm
01:21 PM 71.8°F22.1°C 67.5°F19.7°C 59% 6.8 mph NW10.9 kmh NW 6.8 mph10.9 kmh 29.79 in1008.8 mb 0.00 in0.0 mm 0.00 in0.0 mm 0.00 in0.0 mm
01:22 PM 71.7°F22.1°C 68.3°F20.2°C 59% 9.3 mph NNW15.0 kmh NNW 9.3 mph15.0 kmh 29.79 in1008.8 mb 0.00 in0.0 mm 0.00 in0.0 mm 0.00 in0.0 mm
01:25 PM 71.4°F21.9°C 68.4°F20.2°C 59% 10.7 mph NNW17.2 kmh NNW 10.8 mph17.4 kmh 29.79 in1008.8 mb 0.00 in0.0 mm 0.00 in0.0 mm 0.00 in0.0 mm
01:27 PM 69.4°F20.8°C 67.7°F19.8°C 60% 7.3 mph NNW11.7 kmh NNW 7.3 mph11.7 kmh 29.79 in1008.8 mb 0.00 in0.0 mm 0.00 in0.0 mm 0.00 in0.0 mm
01:28 PM 69.4°F20.8°C 67.8°F19.9°C 61% 6.1 mph NNW9.8 kmh NNW 6.1 mph9.8 kmh 29.80 in1009.1 mb 0.00 in0.0 mm 0.00 in0.0 mm 0.00 in0.0 mm
01:30 PM 69.9°F21.1°C 67.9°F19.9°C 61% 5.3 mph NW8.5 kmh NW 5.3 mph8.5 kmh 29.80 in1009.1 mb 0.00 in0.0 mm 0.00 in0.0 mm 0.00 in0.0 mm
01:31 PM 69.9°F21.1°C 68.0°F20.0°C 61% 6.5 mph NW10.5 kmh NW 6.5 mph10.5 kmh 29.80 in1009.1 mb 0.00 in0.0 mm 0.00 in0.0 mm 0.00 in0.0 mm
01:34 PM 69.6°F20.9°C 68.1°F20.1°C 62% 9.7 mph NW15.6 kmh NW 9.8 mph15.8 kmh 29.81 in1009.5 mb 0.00 in0.0 mm 0.00 in0.0 mm 0.00 in0.0 mm
01:37 PM 68.8°F20.4°C 66.7°F19.3°C 63% 11.3 mph NNW18.2 kmh NNW 11.3 mph18.2 kmh 29.81 in1009.5 mb 0.00 in0.0 mm 0.00 in0.0 mm 0.00 in0.0 mm
01:40 PM 68.5°F20.3°C 66.6°F19.2°C 63% 10.7 mph NW17.2 kmh NW 10.8 mph17.4 kmh 29.81 in1009.5 mb 0.00 in0.0 mm 0.00 in0.0 mm 0.00 in0.0 mm
01:43 PM 66.9°F19.4°C 66.3°F19.1°C 64% 7.2 mph NW11.6 kmh NW 7.2 mph11.6 kmh 29.82 in1009.8 mb 0.00 in0.0 mm 0.00 in0.0 mm 0.00 in0.0 mm
01:45 PM 67.4°F19.7°C 66.4°F19.1°C 64% 10.5 mph NW16.9 kmh NW 10.6 mph17.1 kmh 29.82 in1009.8 mb 0.00 in0.0 mm 0.00 in0.0 mm 0.00 in0.0 mm
01:46 PM 67.6°F19.8°C 65.5°F18.6°C 64% 9.6 mph NW15.4 kmh NW 9.7 mph15.6 kmh 29.82 in1009.8 mb 0.00 in0.0 mm 0.00 in0.0 mm 0.00 in0.0 mm
01:49 PM 67.1°F19.5°C 65.5°F18.6°C 64% 14.3 mph WNW23.0 kmh WNW 14.4 mph23.2 kmh 29.82 in1009.8 mb 0.00 in0.0 mm 0.00 in0.0 mm 0.00 in0.0 mm
01:51 PM 66.0°F18.9°C 64.8°F18.2°C 64% 3.6 mph W5.8 kmh W 3.7 mph6.0 kmh 29.82 in1009.8 mb 0.00 in0.0 mm 0.00 in0.0 mm 0.00 in0.0 mm
01:52 PM 66.1°F18.9°C 65.6°F18.7°C 64% 2.8 mph WNW4.5 kmh WNW 3.0 mph4.8 kmh 29.82 in1009.8 mb 0.00 in0.0 mm 0.00 in0.0 mm 0.00 in0.0 mm
01:54 PM 65.4°F18.6°C 64.0°F17.8°C 64% 4.0 mph NNW6.4 kmh NNW 4.1 mph6.6 kmh 29.83 in1010.2 mb 0.00 in0.0 mm 0.00 in0.0 mm 0.00 in0.0 mm
01:55 PM 65.4°F18.6°C 64.2°F17.9°C 64% 3.9 mph NNE6.3 kmh NNE 3.9 mph6.3 kmh 29.83 in1010.2 mb 0.00 in0.0 mm 0.00 in0.0 mm 0.00 in0.0 mm
01:58 PM 64.7°F18.2°C 63.6°F17.6°C 64% 11.5 mph NW18.5 kmh NW 11.6 mph18.7 kmh 29.83 in1010.2 mb 0.00 in0.0 mm 0.00 in0.0 mm 0.00 in0.0 mm
02:01 PM 63.7°F17.6°C 63.0°F17.2°C 65% 11.7 mph 18.8 kmh 11.8 mph19.0 kmh 29.83 in1010.2 mb 0.00 in0.0 mm 0.00 in0.0 mm 0.00 in0.0 mm
02:04 PM 63.5°F17.5°C 63.7°F17.6°C 65% 9.5 mph NNW15.3 kmh NNW 9.6 mph15.4 kmh 29.83 in1010.2 mb 0.00 in0.0 mm 0.00 in0.0 mm 0.00 in0.0 mm
02:07 PM 63.6°F17.6°C 63.8°F17.7°C 66% 4.4 mph WNW7.1 kmh WNW 4.5 mph7.2 kmh 29.83 in1010.2 mb 0.00 in0.0 mm 0.00 in0.0 mm 0.00 in0.0 mm
02:10 PM 63.4°F17.4°C 63.5°F17.5°C 66% 8.1 mph NW13.0 kmh NW 8.1 mph13.0 kmh 29.83 in1010.2 mb 0.00 in0.0 mm 0.00 in0.0 mm 0.00 in0.0 mm
02:13 PM 63.3°F17.4°C 63.0°F17.2°C 66% 7.9 mph NNW12.7 kmh NNW 7.9 mph12.7 kmh 29.83 in1010.2 mb 0.00 in0.0 mm 0.00 in0.0 mm 0.00 in0.0 mm
02:16 PM 64.0°F17.8°C 62.9°F17.2°C 66% 9.5 mph NW15.3 kmh NW 9.6 mph15.4 kmh 29.83 in1010.2 mb 0.00 in0.0 mm 0.00 in0.0 mm 0.00 in0.0 mm
02:19 PM 63.8°F17.7°C 62.8°F17.1°C 66% 6.9 mph 11.1 kmh 6.9 mph11.1 kmh 29.83 in1010.2 mb 0.00 in0.0 mm 0.00 in0.0 mm 0.00 in0.0 mm
02:22 PM 64.1°F17.8°C 63.1°F17.3°C 66% 7.7 mph NNW12.4 kmh NNW 7.7 mph12.4 kmh 29.83 in1010.2 mb 0.00 in0.0 mm 0.00 in0.0 mm 0.00 in0.0 mm
02:24 PM 64.3°F17.9°C 63.3°F17.4°C 66% 8.1 mph NW13.0 kmh NW 8.2 mph13.2 kmh 29.83 in1010.2 mb 0.00 in0.0 mm 0.00 in0.0 mm 0.00 in0.0 mm
02:25 PM 64.3°F17.9°C 62.4°F16.9°C 66% 6.9 mph NW11.1 kmh NW 7.0 mph11.3 kmh 29.83 in1010.2 mb 0.00 in0.0 mm 0.00 in0.0 mm 0.00 in0.0 mm
02:28 PM 64.0°F17.8°C 62.3°F16.8°C 66% 5.7 mph NW9.2 kmh NW 5.7 mph9.2 kmh 29.83 in1010.2 mb 0.00 in0.0 mm 0.00 in0.0 mm 0.00 in0.0 mm
02:30 PM 64.0°F17.8°C 62.4°F16.9°C 66% 7.3 mph NNW11.7 kmh NNW 7.3 mph11.7 kmh 29.83 in1010.2 mb 0.00 in0.0 mm 0.00 in0.0 mm 0.00 in0.0 mm
02:31 PM 64.1°F17.8°C 62.5°F16.9°C 66% 5.4 mph NW8.7 kmh NW 5.5 mph8.9 kmh 29.83 in1010.2 mb 0.00 in0.0 mm 0.00 in0.0 mm 0.00 in0.0 mm
02:34 PM 64.0°F17.8°C 62.3°F16.8°C 66% 4.9 mph NW7.9 kmh NW 4.9 mph7.9 kmh 29.83 in1010.2 mb 0.00 in0.0 mm 0.00 in0.0 mm 0.00 in0.0 mm
02:37 PM 64.4°F18.0°C 63.0°F17.2°C 67% 1.6 mph NW2.6 kmh NW 1.6 mph2.6 kmh 29.83 in1010.2 mb 0.00 in0.0 mm 0.00 in0.0 mm 0.00 in0.0 mm
02:40 PM 65.1°F18.4°C 62.7°F17.1°C 67% 4.4 mph WNW7.1 kmh WNW 4.5 mph7.2 kmh 29.83 in1010.2 mb 0.00 in0.0 mm 0.00 in0.0 mm 0.00 in0.0 mm
02:43 PM 65.6°F18.7°C 63.4°F17.4°C 67% 4.0 mph NW6.4 kmh NW 4.1 mph6.6 kmh 29.83 in1010.2 mb 0.00 in0.0 mm 0.00 in0.0 mm 0.00 in0.0 mm
02:46 PM 65.2°F18.4°C 62.8°F17.1°C 67% 2.4 mph NNW3.9 kmh NNW 2.4 mph3.9 kmh 29.84 in1010.5 mb 0.00 in0.0 mm 0.00 in0.0 mm 0.00 in0.0 mm
02:49 PM 65.0°F18.3°C 62.7°F17.1°C 67% 4.4 mph NNW7.1 kmh NNW 4.4 mph7.1 kmh 29.84 in1010.5 mb 0.00 in0.0 mm 0.00 in0.0 mm 0.00 in0.0 mm
02:52 PM 65.9°F18.8°C 62.9°F17.2°C 67% 8.0 mph NW12.9 kmh NW 8.0 mph12.9 kmh 29.85 in1010.8 mb 0.00 in0.0 mm 0.00 in0.0 mm 0.00 in0.0 mm
02:55 PM 64.9°F18.3°C 62.4°F16.9°C 67% 7.6 mph 12.2 kmh 7.6 mph12.2 kmh 29.85 in1010.8 mb 0.00 in0.0 mm 0.00 in0.0 mm 0.00 in0.0 mm
02:57 PM 65.9°F18.8°C 62.2°F16.8°C 67% 4.5 mph WNW7.2 kmh WNW 4.5 mph7.2 kmh 29.85 in1010.8 mb 0.00 in0.0 mm 0.00 in0.0 mm 0.00 in0.0 mm
02:58 PM 66.0°F18.9°C 62.7°F17.1°C 67% 4.0 mph WSW6.4 kmh WSW 4.0 mph6.4 kmh 29.85 in1010.8 mb 0.00 in0.0 mm 0.00 in0.0 mm 0.00 in0.0 mm
03:00 PM 65.9°F18.8°C 62.3°F16.8°C 67% 4.0 mph NW6.4 kmh NW 4.1 mph6.6 kmh 29.84 in1010.5 mb 0.00 in0.0 mm 0.00 in0.0 mm 0.00 in0.0 mm
03:01 PM 65.9°F18.8°C 62.1°F16.7°C 67% 3.9 mph NW6.3 kmh NW 4.0 mph6.4 kmh 29.84 in1010.5 mb 0.00 in0.0 mm 0.00 in0.0 mm 0.00 in0.0 mm
03:04 PM 65.5°F18.6°C 62.1°F16.7°C 67% 5.6 mph 9.0 kmh 5.6 mph9.0 kmh 29.83 in1010.2 mb 0.00 in0.0 mm 0.00 in0.0 mm 0.00 in0.0 mm
03:07 PM 65.6°F18.7°C 62.7°F17.1°C 67% 4.0 mph NW6.4 kmh NW 4.1 mph6.6 kmh 29.83 in1010.2 mb 0.00 in0.0 mm 0.00 in0.0 mm 0.00 in0.0 mm
03:09 PM 66.0°F18.9°C 62.0°F16.7°C 66% 4.8 mph NNW7.7 kmh NNW 4.9 mph7.9 kmh 29.82 in1009.8 mb 0.00 in0.0 mm 0.00 in0.0 mm 0.00 in0.0 mm
03:10 PM 66.1°F18.9°C 61.9°F16.6°C 66% 5.3 mph NW8.5 kmh NW 5.3 mph8.5 kmh 29.82 in1009.8 mb 0.00 in0.0 mm 0.00 in0.0 mm 0.00 in0.0 mm
03:13 PM 66.2°F19.0°C 62.7°F17.1°C 67% 4.4 mph NNW7.1 kmh NNW 4.5 mph7.2 kmh 29.82 in1009.8 mb 0.00 in0.0 mm 0.00 in0.0 mm 0.00 in0.0 mm
03:16 PM 65.9°F18.8°C 62.8°F17.1°C 67% 5.7 mph NNW9.2 kmh NNW 5.7 mph9.2 kmh 29.83 in1010.2 mb 0.00 in0.0 mm 0.00 in0.0 mm 0.00 in0.0 mm
03:19 PM 67.1°F19.5°C 62.6°F17.0°C 67% 0.4 mph WNW0.6 kmh WNW 0.4 mph0.6 kmh 29.83 in1010.2 mb 0.00 in0.0 mm 0.00 in0.0 mm 0.00 in0.0 mm
03:21 PM 67.6°F19.8°C 63.3°F17.4°C 67% 4.8 mph NW7.7 kmh NW 4.9 mph7.9 kmh 29.83 in1010.2 mb 0.00 in0.0 mm 0.00 in0.0 mm 0.00 in0.0 mm
03:22 PM 67.6°F19.8°C 62.7°F17.1°C 67% 5.6 mph NW9.0 kmh NW 5.6 mph9.0 kmh 29.83 in1010.2 mb 0.00 in0.0 mm 0.00 in0.0 mm 0.00 in0.0 mm
03:25 PM 67.4°F19.7°C 62.7°F17.1°C 67% 3.8 mph NW6.1 kmh NW 3.9 mph6.3 kmh 29.83 in1010.2 mb 0.00 in0.0 mm 0.00 in0.0 mm 0.00 in0.0 mm
03:28 PM 67.6°F19.8°C 62.6°F17.0°C 67% 2.0 mph NW3.2 kmh NW 2.0 mph3.2 kmh 29.83 in1010.2 mb 0.00 in0.0 mm 0.00 in0.0 mm 0.00 in0.0 mm
03:30 PM 68.3°F20.2°C 63.5°F17.5°C 67% 4.4 mph W7.1 kmh W 4.5 mph7.2 kmh 29.83 in1010.2 mb 0.00 in0.0 mm 0.00 in0.0 mm 0.00 in0.0 mm
03:31 PM 68.3°F20.2°C 63.4°F17.4°C 67% 4.7 mph W7.6 kmh W 4.7 mph7.6 kmh 29.83 in1010.2 mb 0.00 in0.0 mm 0.00 in0.0 mm 0.00 in0.0 mm
03:34 PM 68.6°F20.3°C 62.9°F17.2°C 67% 3.6 mph WNW5.8 kmh WNW 3.6 mph5.8 kmh 29.83 in1010.2 mb 0.00 in0.0 mm 0.00 in0.0 mm 0.00 in0.0 mm
03:37 PM 67.7°F19.8°C 63.1°F17.3°C 66% 2.4 mph W3.9 kmh W 2.4 mph3.9 kmh 29.83 in1010.2 mb 0.00 in0.0 mm 0.00 in0.0 mm 0.00 in0.0 mm
03:39 PM 67.9°F19.9°C 63.1°F17.3°C 67% 2.8 mph W4.5 kmh W 2.9 mph4.7 kmh 29.84 in1010.5 mb 0.00 in0.0 mm 0.00 in0.0 mm 0.00 in0.0 mm
03:40 PM 67.9°F19.9°C 63.0°F17.2°C 67% 2.3 mph W3.7 kmh W 2.3 mph3.7 kmh 29.84 in1010.5 mb 0.00 in0.0 mm 0.00 in0.0 mm 0.00 in0.0 mm
03:42 PM 68.0°F20.0°C 63.3°F17.4°C 66% 4.0 mph NNW6.4 kmh NNW 4.1 mph6.6 kmh 29.85 in1010.8 mb 0.00 in0.0 mm 0.00 in0.0 mm 0.00 in0.0 mm
03:43 PM 68.0°F20.0°C 63.5°F17.5°C 66% 4.2 mph NNW6.8 kmh NNW 4.2 mph6.8 kmh 29.85 in1010.8 mb 0.00 in0.0 mm 0.00 in0.0 mm 0.00 in0.0 mm
03:45 PM 68.3°F20.2°C 63.3°F17.4°C 66% 7.3 mph WNW11.7 kmh WNW 7.3 mph11.7 kmh 29.85 in1010.8 mb 0.00 in0.0 mm 0.00 in0.0 mm 0.00 in0.0 mm
03:46 PM 68.3°F20.2°C 62.9°F17.2°C 65% 8.6 mph W13.8 kmh W 8.7 mph14.0 kmh 29.85 in1010.8 mb 0.00 in0.0 mm 0.00 in0.0 mm 0.00 in0.0 mm
03:49 PM 68.0°F20.0°C 62.7°F17.1°C 65% 2.8 mph WNW4.5 kmh WNW 2.9 mph4.7 kmh 29.85 in1010.8 mb 0.00 in0.0 mm 0.00 in0.0 mm 0.00 in0.0 mm
03:51 PM 67.3°F19.6°C 62.8°F17.1°C 66% 2.0 mph NW3.2 kmh NW 2.0 mph3.2 kmh 29.85 in1010.8 mb 0.00 in0.0 mm 0.00 in0.0 mm 0.00 in0.0 mm
03:52 PM 67.3°F19.6°C 62.5°F16.9°C 66% 2.1 mph WNW3.4 kmh WNW 2.1 mph3.4 kmh 29.84 in1010.5 mb 0.00 in0.0 mm 0.00 in0.0 mm 0.00 in0.0 mm
03:55 PM 67.2°F19.6°C 62.9°F17.2°C 66% 5.6 mph WNW9.0 kmh WNW 5.6 mph9.0 kmh 29.85 in1010.8 mb 0.00 in0.0 mm 0.00 in0.0 mm 0.00 in0.0 mm
03:58 PM 67.1°F19.5°C 63.0°F17.2°C 66% 2.8 mph NNW4.5 kmh NNW 2.8 mph4.5 kmh 29.85 in1010.8 mb 0.00 in0.0 mm 0.00 in0.0 mm 0.00 in0.0 mm
04:01 PM 66.8°F19.3°C 63.3°F17.4°C 66% 5.3 mph 8.5 kmh 5.3 mph8.5 kmh 29.85 in1010.8 mb 0.00 in0.0 mm 0.00 in0.0 mm 0.00 in0.0 mm
04:04 PM 66.1°F18.9°C 63.0°F17.2°C 66% 6.0 mph 9.7 kmh 6.0 mph9.7 kmh 29.85 in1010.8 mb 0.00 in0.0 mm 0.00 in0.0 mm 0.00 in0.0 mm
04:07 PM 65.6°F18.7°C 62.3°F16.8°C 64% 5.7 mph 9.2 kmh 5.7 mph9.2 kmh 29.85 in1010.8 mb 0.00 in0.0 mm 0.00 in0.0 mm 0.00 in0.0 mm
04:09 PM 66.0°F18.9°C 62.2°F16.8°C 65% 4.9 mph NW7.9 kmh NW 4.9 mph7.9 kmh 29.84 in1010.5 mb 0.00 in0.0 mm 0.00 in0.0 mm 0.00 in0.0 mm
04:10 PM 66.0°F18.9°C 62.3°F16.8°C 65% 5.0 mph NW8.0 kmh NW 5.0 mph8.0 kmh 29.84 in1010.5 mb 0.00 in0.0 mm 0.00 in0.0 mm 0.00 in0.0 mm
04:12 PM 65.8°F18.8°C 62.1°F16.7°C 65% 3.2 mph NNW5.1 kmh NNW 3.3 mph5.3 kmh 29.84 in1010.5 mb 0.00 in0.0 mm 0.00 in0.0 mm 0.00 in0.0 mm
04:13 PM 65.8°F18.8°C 61.9°F16.6°C 65% 3.7 mph 6.0 kmh 3.7 mph6.0 kmh 29.83 in1010.2 mb 0.00 in0.0 mm 0.00 in0.0 mm 0.00 in0.0 mm
04:16 PM 66.8°F19.3°C 62.1°F16.7°C 65% 3.2 mph WNW5.1 kmh WNW 3.3 mph5.3 kmh 29.83 in1010.2 mb 0.00 in0.0 mm 0.00 in0.0 mm 0.00 in0.0 mm
04:19 PM 66.9°F19.4°C 61.6°F16.4°C 64% 2.0 mph SW3.2 kmh SW 2.0 mph3.2 kmh 29.85 in1010.8 mb 0.00 in0.0 mm 0.00 in0.0 mm 0.00 in0.0 mm
04:21 PM 66.1°F18.9°C 60.8°F16.0°C 63% 7.7 mph W12.4 kmh W 7.7 mph12.4 kmh 29.84 in1010.5 mb 0.00 in0.0 mm 0.00 in0.0 mm 0.00 in0.0 mm
04:22 PM 66.2°F19.0°C 60.8°F16.0°C 62% 6.5 mph W10.5 kmh W 6.8 mph10.9 kmh 29.85 in1010.8 mb 0.00 in0.0 mm 0.00 in0.0 mm 0.00 in0.0 mm
04:25 PM 66.3°F19.1°C 60.9°F16.1°C 64% 4.4 mph WSW7.1 kmh WSW 4.4 mph7.1 kmh 29.85 in1010.8 mb 0.00 in0.0 mm 0.00 in0.0 mm 0.00 in0.0 mm
04:28 PM 66.4°F19.1°C 61.1°F16.2°C 64% 2.8 mph 4.5 kmh 2.8 mph4.5 kmh 29.84 in1010.5 mb 0.00 in0.0 mm 0.00 in0.0 mm 0.00 in0.0 mm
04:31 PM 66.1°F18.9°C 61.4°F16.3°C 65% 2.0 mph WSW3.2 kmh WSW 2.0 mph3.2 kmh 29.85 in1010.8 mb 0.00 in0.0 mm 0.00 in0.0 mm 0.00 in0.0 mm
04:33 PM 65.5°F18.6°C 61.4°F16.3°C 66% 6.9 mph W11.1 kmh W 6.9 mph11.1 kmh 29.85 in1010.8 mb 0.00 in0.0 mm 0.00 in0.0 mm 0.00 in0.0 mm
04:34 PM 65.5°F18.6°C 61.8°F16.6°C 66% 6.3 mph W10.1 kmh W 6.4 mph10.3 kmh 29.85 in1010.8 mb 0.00 in0.0 mm 0.00 in0.0 mm 0.00 in0.0 mm
04:37 PM 65.0°F18.3°C 61.8°F16.6°C 66% 3.2 mph NW5.1 kmh NW 3.3 mph5.3 kmh 29.85 in1010.8 mb 0.00 in0.0 mm 0.00 in0.0 mm 0.00 in0.0 mm
04:40 PM 64.6°F18.1°C 61.4°F16.3°C 67% 4.8 mph NNW7.7 kmh NNW 4.8 mph7.7 kmh 29.85 in1010.8 mb 0.00 in0.0 mm 0.00 in0.0 mm 0.00 in0.0 mm
04:43 PM 64.5°F18.1°C 61.4°F16.3°C 67% 2.4 mph W3.9 kmh W 2.4 mph3.9 kmh 29.84 in1010.5 mb 0.00 in0.0 mm 0.00 in0.0 mm 0.00 in0.0 mm
04:46 PM 64.7°F18.2°C 61.8°F16.6°C 68% 4.0 mph W6.4 kmh W 4.0 mph6.4 kmh 29.85 in1010.8 mb 0.00 in0.0 mm 0.00 in0.0 mm 0.00 in0.0 mm
04:49 PM 64.7°F18.2°C 61.4°F16.3°C 68% 2.4 mph NNW3.9 kmh NNW 2.4 mph3.9 kmh 29.85 in1010.8 mb 0.00 in0.0 mm 0.00 in0.0 mm 0.00 in0.0 mm
04:52 PM 64.1°F17.8°C 61.4°F16.3°C 68% 4.1 mph W6.6 kmh W 4.1 mph6.6 kmh 29.85 in1010.8 mb 0.00 in0.0 mm 0.00 in0.0 mm 0.00 in0.0 mm
04:54 PM 62.6°F17.0°C 61.2°F16.2°C 68% 5.3 mph W8.5 kmh W 5.3 mph8.5 kmh 29.86 in1011.2 mb 0.00 in0.0 mm 0.00 in0.0 mm 0.00 in0.0 mm
04:55 PM 62.6°F17.0°C 61.2°F16.2°C 68% 4.9 mph W7.9 kmh W 5.1 mph8.2 kmh 29.85 in1010.8 mb 0.00 in0.0 mm 0.00 in0.0 mm 0.00 in0.0 mm
04:58 PM 62.2°F16.8°C 61.2°F16.2°C 69% 6.9 mph WSW11.1 kmh WSW 6.9 mph11.1 kmh 29.87 in1011.5 mb 0.00 in0.0 mm 0.00 in0.0 mm 0.00 in0.0 mm
05:01 PM 62.2°F16.8°C 61.2°F16.2°C 69% 5.2 mph SW8.4 kmh SW 5.2 mph8.4 kmh 29.87 in1011.5 mb 0.00 in0.0 mm 0.00 in0.0 mm 0.00 in0.0 mm
05:04 PM 61.5°F16.4°C 61.0°F16.1°C 69% 4.1 mph WNW6.6 kmh WNW 4.1 mph6.6 kmh 29.87 in1011.5 mb 0.00 in0.0 mm 0.00 in0.0 mm 0.00 in0.0 mm
05:07 PM 61.7°F16.5°C 60.5°F15.8°C 69% 3.2 mph NNW5.1 kmh NNW 3.2 mph5.1 kmh 29.86 in1011.2 mb 0.00 in0.0 mm 0.00 in0.0 mm 0.00 in0.0 mm
05:13 PM 60.7°F15.9°C 59.6°F15.3°C 69% 3.6 mph NW5.8 kmh NW 3.6 mph5.8 kmh 29.85 in1010.8 mb 0.00 in0.0 mm 0.00 in0.0 mm 0.00 in0.0 mm
05:16 PM 60.5°F15.8°C 59.7°F15.4°C 69% 4.0 mph NNW6.4 kmh NNW 4.0 mph6.4 kmh 29.85 in1010.8 mb 0.00 in0.0 mm 0.00 in0.0 mm 0.00 in0.0 mm
05:18 PM 60.4°F15.8°C 59.7°F15.4°C 69% 3.6 mph WNW5.8 kmh WNW 3.7 mph6.0 kmh 29.84 in1010.5 mb 0.00 in0.0 mm 0.00 in0.0 mm 0.00 in0.0 mm
05:19 PM 60.4°F15.8°C 59.5°F15.3°C 69% 3.9 mph WNW6.3 kmh WNW 4.0 mph6.4 kmh 29.85 in1010.8 mb 0.00 in0.0 mm 0.00 in0.0 mm 0.00 in0.0 mm
05:21 PM 60.2°F15.7°C 59.7°F15.4°C 69% Calm Calm -- 29.84 in1010.5 mb 0.00 in0.0 mm 0.00 in0.0 mm 0.00 in0.0 mm
05:22 PM 60.2°F15.7°C 59.6°F15.3°C 69% Calm Calm -- 29.84 in1010.5 mb 0.00 in0.0 mm 0.00 in0.0 mm 0.00 in0.0 mm
05:25 PM 60.2°F15.7°C 59.8°F15.4°C 70% 3.5 mph WSW5.6 kmh WSW 3.7 mph6.0 kmh 29.85 in1010.8 mb 0.00 in0.0 mm 0.00 in0.0 mm 0.00 in0.0 mm
05:28 PM 59.5°F15.3°C 60.2°F15.7°C 71% 5.2 mph WSW8.4 kmh WSW 5.2 mph8.4 kmh 29.88 in1011.9 mb 0.00 in0.0 mm 0.00 in0.0 mm 0.00 in0.0 mm
05:31 PM 58.6°F14.8°C 59.8°F15.4°C 71% 3.6 mph NNW5.8 kmh NNW 3.7 mph6.0 kmh 29.89 in1012.2 mb 0.00 in0.0 mm 0.00 in0.0 mm 0.00 in0.0 mm
05:34 PM 58.1°F14.5°C 59.8°F15.4°C 72% 4.8 mph NNW7.7 kmh NNW 4.8 mph7.7 kmh 29.86 in1011.2 mb 0.00 in0.0 mm 0.00 in0.0 mm 0.00 in0.0 mm
05:37 PM 58.1°F14.5°C 59.9°F15.5°C 72% 3.6 mph NNW5.8 kmh NNW 3.6 mph5.8 kmh 29.86 in1011.2 mb 0.00 in0.0 mm 0.00 in0.0 mm 0.02 in0.5 mm
05:40 PM 57.9°F14.4°C 59.8°F15.4°C 73% 2.8 mph NNW4.5 kmh NNW 2.8 mph4.5 kmh 29.87 in1011.5 mb 0.00 in0.0 mm 0.00 in0.0 mm 0.02 in0.5 mm
05:43 PM 57.8°F14.3°C 59.5°F15.3°C 73% 4.8 mph NNW7.7 kmh NNW 4.8 mph7.7 kmh 29.88 in1011.9 mb 0.00 in0.0 mm 0.00 in0.0 mm 0.02 in0.5 mm
05:49 PM 57.3°F14.1°C 59.7°F15.4°C 74% 1.6 mph W2.6 kmh W 1.6 mph2.6 kmh 29.89 in1012.2 mb 0.00 in0.0 mm 0.00 in0.0 mm 0.02 in0.5 mm
05:52 PM 57.4°F14.1°C 59.5°F15.3°C 74% 2.0 mph NNW3.2 kmh NNW 2.0 mph3.2 kmh 29.89 in1012.2 mb 0.00 in0.0 mm 0.00 in0.0 mm 0.02 in0.5 mm
05:54 PM 57.7°F14.3°C 59.6°F15.3°C 75% 3.6 mph NW5.8 kmh NW 3.7 mph6.0 kmh 29.89 in1012.2 mb 0.00 in0.0 mm 0.00 in0.0 mm 0.02 in0.5 mm
05:55 PM 57.9°F14.4°C 59.8°F15.4°C 75% 2.8 mph NW4.5 kmh NW 2.8 mph4.5 kmh 29.89 in1012.2 mb 0.00 in0.0 mm 0.00 in0.0 mm 0.02 in0.5 mm
05:58 PM 57.2°F14.0°C 59.6°F15.3°C 75% 4.4 mph 7.1 kmh 4.4 mph7.1 kmh 29.88 in1011.9 mb 0.00 in0.0 mm 0.00 in0.0 mm 0.02 in0.5 mm
06:01 PM 57.7°F14.3°C 59.5°F15.3°C 74% 2.4 mph NNW3.9 kmh NNW 2.4 mph3.9 kmh 29.88 in1011.9 mb 0.00 in0.0 mm 0.00 in0.0 mm 0.02 in0.5 mm
06:04 PM 56.9°F13.8°C 59.8°F15.4°C 76% 8.9 mph 14.3 kmh 8.9 mph14.3 kmh 29.86 in1011.2 mb 0.00 in0.0 mm 0.00 in0.0 mm 0.02 in0.5 mm
06:07 PM 57.2°F14.0°C 59.6°F15.3°C 76% 3.2 mph NNW5.1 kmh NNW 3.2 mph5.1 kmh 29.86 in1011.2 mb 0.00 in0.0 mm 0.00 in0.0 mm 0.02 in0.5 mm
06:10 PM 57.9°F14.4°C 59.6°F15.3°C 76% 1.2 mph 1.9 kmh 1.2 mph1.9 kmh 29.85 in1010.8 mb 0.00 in0.0 mm 0.00 in0.0 mm 0.02 in0.5 mm
06:13 PM 57.7°F14.3°C 59.6°F15.3°C 76% 4.0 mph NNW6.4 kmh NNW 4.0 mph6.4 kmh 29.85 in1010.8 mb 0.00 in0.0 mm 0.00 in0.0 mm 0.02 in0.5 mm
06:16 PM 57.5°F14.2°C 60.1°F15.6°C 76% 3.2 mph 5.1 kmh 3.2 mph5.1 kmh 29.85 in1010.8 mb 0.00 in0.0 mm 0.00 in0.0 mm 0.02 in0.5 mm
06:19 PM 57.2°F14.0°C 60.1°F15.6°C 77% 4.4 mph 7.1 kmh 4.5 mph7.2 kmh 29.85 in1010.8 mb 0.00 in0.0 mm 0.00 in0.0 mm 0.02 in0.5 mm
06:22 PM 57.8°F14.3°C 59.8°F15.4°C 76% 0.4 mph WNW0.6 kmh WNW 0.4 mph0.6 kmh 29.86 in1011.2 mb 0.00 in0.0 mm 0.00 in0.0 mm 0.02 in0.5 mm
06:25 PM 58.2°F14.6°C 59.7°F15.4°C 76% 0.4 mph WNW0.6 kmh WNW 0.4 mph0.6 kmh 29.87 in1011.5 mb 0.00 in0.0 mm 0.00 in0.0 mm 0.02 in0.5 mm
06:28 PM 58.2°F14.6°C 59.4°F15.2°C 75% Calm Calm -- 29.86 in1011.2 mb 0.00 in0.0 mm 0.00 in0.0 mm 0.02 in0.5 mm
06:30 PM 59.0°F15.0°C 60.1°F15.6°C 77% Calm Calm -- 29.86 in1011.2 mb 0.00 in0.0 mm 0.00 in0.0 mm 0.02 in0.5 mm
06:31 PM 59.0°F15.0°C 59.6°F15.3°C 76% Calm Calm -- 29.86 in1011.2 mb 0.00 in0.0 mm 0.00 in0.0 mm 0.02 in0.5 mm
06:33 PM 59.5°F15.3°C 60.2°F15.7°C 76% 0.4 mph NNW0.6 kmh NNW 0.4 mph0.6 kmh 29.87 in1011.5 mb 0.00 in0.0 mm 0.00 in0.0 mm 0.02 in0.5 mm
06:34 PM 59.3°F15.2°C 60.0°F15.6°C 76% 0.2 mph NNW0.3 kmh NNW 0.3 mph0.5 kmh 29.87 in1011.5 mb 0.00 in0.0 mm 0.00 in0.0 mm 0.02 in0.5 mm
06:37 PM 58.6°F14.8°C 60.1°F15.6°C 76% Calm Calm -- 29.87 in1011.5 mb 0.00 in0.0 mm 0.00 in0.0 mm 0.02 in0.5 mm
06:39 PM 58.4°F14.7°C 60.0°F15.6°C 76% Calm Calm -- 29.86 in1011.2 mb 0.00 in0.0 mm 0.00 in0.0 mm 0.02 in0.5 mm
06:40 PM 58.9°F14.9°C 60.0°F15.6°C 76% Calm Calm -- 29.87 in1011.5 mb 0.00 in0.0 mm 0.00 in0.0 mm 0.02 in0.5 mm
06:43 PM 58.4°F14.7°C 59.9°F15.5°C 76% Calm Calm -- 29.87 in1011.5 mb 0.00 in0.0 mm 0.00 in0.0 mm 0.02 in0.5 mm
06:46 PM 58.3°F14.6°C 60.1°F15.6°C 77% Calm Calm -- 29.88 in1011.9 mb 0.00 in0.0 mm 0.00 in0.0 mm 0.02 in0.5 mm
06:48 PM 58.3°F14.6°C 59.9°F15.5°C 76% 2.8 mph WSW4.5 kmh WSW 2.9 mph4.7 kmh 29.88 in1011.9 mb 0.00 in0.0 mm 0.00 in0.0 mm 0.02 in0.5 mm
06:49 PM 58.8°F14.9°C 60.2°F15.7°C 76% 1.4 mph SW2.3 kmh SW 1.4 mph2.3 kmh 29.89 in1012.2 mb 0.00 in0.0 mm 0.00 in0.0 mm 0.02 in0.5 mm
06:51 PM 59.0°F15.0°C 60.1°F15.6°C 77% 3.6 mph SW5.8 kmh SW 3.7 mph6.0 kmh 29.89 in1012.2 mb 0.00 in0.0 mm 0.00 in0.0 mm 0.02 in0.5 mm
06:52 PM 59.0°F15.0°C 60.0°F15.6°C 77% 3.5 mph WSW5.6 kmh WSW 3.5 mph5.6 kmh 29.89 in1012.2 mb 0.00 in0.0 mm 0.00 in0.0 mm 0.02 in0.5 mm
06:55 PM 59.1°F15.1°C 60.0°F15.6°C 77% 1.2 mph SW1.9 kmh SW 1.2 mph1.9 kmh 29.88 in1011.9 mb 0.00 in0.0 mm 0.00 in0.0 mm 0.02 in0.5 mm
06:58 PM 59.9°F15.5°C 60.1°F15.6°C 77% Calm Calm -- 29.88 in1011.9 mb 0.00 in0.0 mm 0.00 in0.0 mm 0.02 in0.5 mm
07:00 PM 60.5°F15.8°C 60.1°F15.6°C 76% Calm Calm -- 29.88 in1011.9 mb 0.00 in0.0 mm 0.00 in0.0 mm 0.02 in0.5 mm
07:01 PM 60.6°F15.9°C 60.5°F15.8°C 77% Calm Calm -- 29.88 in1011.9 mb 0.00 in0.0 mm 0.00 in0.0 mm 0.02 in0.5 mm
07:03 PM 59.9°F15.5°C 60.5°F15.8°C 76% Calm Calm -- 29.88 in1011.9 mb 0.00 in0.0 mm 0.00 in0.0 mm 0.02 in0.5 mm
07:04 PM 59.9°F15.5°C 60.0°F15.6°C 76% 0.2 mph WSW0.3 kmh WSW 0.2 mph0.3 kmh 29.88 in1011.9 mb 0.00 in0.0 mm 0.00 in0.0 mm 0.02 in0.5 mm
07:07 PM 60.5°F15.8°C 60.2°F15.7°C 76% 0.8 mph SW1.3 kmh SW 0.8 mph1.3 kmh 29.88 in1011.9 mb 0.00 in0.0 mm 0.00 in0.0 mm 0.02 in0.5 mm
07:10 PM 60.6°F15.9°C 60.0°F15.6°C 75% Calm Calm -- 29.87 in1011.5 mb 0.00 in0.0 mm 0.00 in0.0 mm 0.02 in0.5 mm
07:13 PM 60.0°F15.6°C 60.2°F15.7°C 75% Calm Calm -- 29.86 in1011.2 mb 0.00 in0.0 mm 0.00 in0.0 mm 0.02 in0.5 mm
07:16 PM 60.1°F15.6°C 60.3°F15.7°C 75% Calm Calm -- 29.86 in1011.2 mb 0.00 in0.0 mm 0.00 in0.0 mm 0.02 in0.5 mm
07:19 PM 60.4°F15.8°C 60.1°F15.6°C 75% Calm Calm -- 29.86 in1011.2 mb 0.00 in0.0 mm 0.00 in0.0 mm 0.02 in0.5 mm
07:25 PM 61.3°F16.3°C 60.4°F15.8°C 75% 1.6 mph NW2.6 kmh NW 1.6 mph2.6 kmh 29.85 in1010.8 mb 0.00 in0.0 mm 0.00 in0.0 mm 0.02 in0.5 mm
07:27 PM 61.8°F16.6°C 60.6°F15.9°C 75% 1.6 mph NW2.6 kmh NW 1.6 mph2.6 kmh 29.85 in1010.8 mb 0.00 in0.0 mm 0.00 in0.0 mm 0.02 in0.5 mm
07:28 PM 61.8°F16.6°C 60.4°F15.8°C 75% 1.9 mph WNW3.1 kmh WNW 1.9 mph3.1 kmh 29.86 in1011.2 mb 0.00 in0.0 mm 0.00 in0.0 mm 0.02 in0.5 mm
07:31 PM 60.9°F16.1°C 60.6°F15.9°C 75% 2.4 mph WSW3.9 kmh WSW 2.4 mph3.9 kmh 29.86 in1011.2 mb 0.00 in0.0 mm 0.00 in0.0 mm 0.02 in0.5 mm
07:34 PM 60.8°F16.0°C 60.5°F15.8°C 75% 0.4 mph NNW0.6 kmh NNW 0.4 mph0.6 kmh 29.87 in1011.5 mb 0.00 in0.0 mm 0.00 in0.0 mm 0.02 in0.5 mm
07:37 PM 60.8°F16.0°C 60.4°F15.8°C 75% 1.2 mph SSW1.9 kmh SSW 1.2 mph1.9 kmh 29.86 in1011.2 mb 0.00 in0.0 mm 0.00 in0.0 mm 0.02 in0.5 mm
07:40 PM 60.1°F15.6°C 60.5°F15.8°C 75% Calm Calm -- 29.86 in1011.2 mb 0.00 in0.0 mm 0.00 in0.0 mm 0.02 in0.5 mm
07:43 PM 59.9°F15.5°C 60.3°F15.7°C 75% 0.8 mph SW1.3 kmh SW 0.8 mph1.3 kmh 29.86 in1011.2 mb 0.00 in0.0 mm 0.00 in0.0 mm 0.02 in0.5 mm
07:45 PM 59.2°F15.1°C 60.1°F15.6°C 74% 1.6 mph WNW2.6 kmh WNW 1.6 mph2.6 kmh 29.87 in1011.5 mb 0.00 in0.0 mm 0.00 in0.0 mm 0.02 in0.5 mm
07:46 PM 59.3°F15.2°C 59.8°F15.4°C 74% 2.1 mph W3.4 kmh W 2.1 mph3.4 kmh 29.87 in1011.5 mb 0.00 in0.0 mm 0.00 in0.0 mm 0.02 in0.5 mm
07:48 PM 59.7°F15.4°C 59.8°F15.4°C 75% 1.2 mph WSW1.9 kmh WSW 1.2 mph1.9 kmh 29.88 in1011.9 mb 0.00 in0.0 mm 0.00 in0.0 mm 0.02 in0.5 mm
07:49 PM 59.9°F15.5°C 60.1°F15.6°C 75% 2.3 mph WSW3.7 kmh WSW 2.3 mph3.7 kmh 29.88 in1011.9 mb 0.00 in0.0 mm 0.00 in0.0 mm 0.02 in0.5 mm
07:51 PM 59.5°F15.3°C 60.0°F15.6°C 75% 3.2 mph SW5.1 kmh SW 3.3 mph5.3 kmh 29.88 in1011.9 mb 0.00 in0.0 mm 0.00 in0.0 mm 0.02 in0.5 mm
07:52 PM 59.6°F15.3°C 59.9°F15.5°C 75% 2.3 mph SW3.7 kmh SW 2.5 mph4.0 kmh 29.89 in1012.2 mb 0.00 in0.0 mm 0.00 in0.0 mm 0.02 in0.5 mm
07:54 PM 59.0°F15.0°C 59.8°F15.4°C 75% 4.0 mph W6.4 kmh W 4.1 mph6.6 kmh 29.89 in1012.2 mb 0.00 in0.0 mm 0.00 in0.0 mm 0.02 in0.5 mm
07:55 PM 59.3°F15.2°C 59.9°F15.5°C 75% 4.4 mph W7.1 kmh W 4.4 mph7.1 kmh 29.90 in1012.5 mb 0.00 in0.0 mm 0.00 in0.0 mm 0.02 in0.5 mm
07:58 PM 59.2°F15.1°C 59.8°F15.4°C 75% 4.9 mph SW7.9 kmh SW 4.9 mph7.9 kmh 29.89 in1012.2 mb 0.00 in0.0 mm 0.00 in0.0 mm 0.02 in0.5 mm
08:00 PM 58.8°F14.9°C 59.2°F15.1°C 74% 2.4 mph WSW3.9 kmh WSW 2.4 mph3.9 kmh 29.89 in1012.2 mb 0.00 in0.0 mm 0.00 in0.0 mm 0.02 in0.5 mm
08:01 PM 59.1°F15.1°C 59.6°F15.3°C 75% 3.2 mph SW5.1 kmh SW 3.2 mph5.1 kmh 29.89 in1012.2 mb 0.00 in0.0 mm 0.00 in0.0 mm 0.02 in0.5 mm
08:03 PM 59.0°F15.0°C 59.5°F15.3°C 75% 1.2 mph NW1.9 kmh NW 1.2 mph1.9 kmh 29.88 in1011.9 mb 0.00 in0.0 mm 0.00 in0.0 mm 0.02 in0.5 mm
08:04 PM 59.1°F15.1°C 59.4°F15.2°C 75% 1.4 mph NW2.3 kmh NW 1.4 mph2.3 kmh 29.88 in1011.9 mb 0.00 in0.0 mm 0.00 in0.0 mm 0.02 in0.5 mm
08:06 PM 58.9°F14.9°C 59.6°F15.3°C 75% 2.0 mph 3.2 kmh 2.0 mph3.2 kmh 29.86 in1011.2 mb 0.00 in0.0 mm 0.00 in0.0 mm 0.02 in0.5 mm
08:07 PM 58.9°F14.9°C 59.6°F15.3°C 75% 2.7 mph 4.3 kmh 2.8 mph4.5 kmh 29.86 in1011.2 mb 0.00 in0.0 mm 0.00 in0.0 mm 0.02 in0.5 mm
08:09 PM 58.8°F14.9°C 59.1°F15.1°C 75% Calm Calm -- 29.86 in1011.2 mb 0.00 in0.0 mm 0.00 in0.0 mm 0.02 in0.5 mm
08:10 PM 58.9°F14.9°C 59.4°F15.2°C 75% Calm Calm -- 29.87 in1011.5 mb 0.00 in0.0 mm 0.00 in0.0 mm 0.02 in0.5 mm
08:13 PM 58.8°F14.9°C 59.1°F15.1°C 75% Calm Calm -- 29.86 in1011.2 mb 0.00 in0.0 mm 0.00 in0.0 mm 0.02 in0.5 mm
08:16 PM 58.6°F14.8°C 59.1°F15.1°C 74% 0.4 mph W0.6 kmh W 0.4 mph0.6 kmh 29.87 in1011.5 mb 0.00 in0.0 mm 0.00 in0.0 mm 0.02 in0.5 mm
08:19 PM 58.6°F14.8°C 59.0°F15.0°C 74% 0.4 mph NNE0.6 kmh NNE 0.4 mph0.6 kmh 29.86 in1011.2 mb 0.00 in0.0 mm 0.00 in0.0 mm 0.02 in0.5 mm
08:24 PM 57.9°F14.4°C 59.2°F15.1°C 75% 4.5 mph WSW7.2 kmh WSW 4.5 mph7.2 kmh 29.89 in1012.2 mb 0.00 in0.0 mm 0.00 in0.0 mm 0.02 in0.5 mm
08:25 PM 57.9°F14.4°C 59.0°F15.0°C 75% 4.6 mph SW7.4 kmh SW 4.6 mph7.4 kmh 29.89 in1012.2 mb 0.00 in0.0 mm 0.00 in0.0 mm 0.02 in0.5 mm
08:27 PM 57.5°F14.2°C 59.0°F15.0°C 75% 0.8 mph W1.3 kmh W 0.8 mph1.3 kmh 29.88 in1011.9 mb 0.00 in0.0 mm 0.00 in0.0 mm 0.02 in0.5 mm
08:28 PM 57.7°F14.3°C 59.0°F15.0°C 75% 0.5 mph SW0.8 kmh SW 0.5 mph0.8 kmh 29.89 in1012.2 mb 0.00 in0.0 mm 0.00 in0.0 mm 0.02 in0.5 mm
08:30 PM 57.4°F14.1°C 59.0°F15.0°C 75% 0.4 mph WSW0.6 kmh WSW 0.4 mph0.6 kmh 29.89 in1012.2 mb 0.00 in0.0 mm 0.00 in0.0 mm 0.02 in0.5 mm
08:31 PM 57.4°F14.1°C 58.9°F14.9°C 75% 0.7 mph WSW1.1 kmh WSW 0.8 mph1.3 kmh 29.89 in1012.2 mb 0.00 in0.0 mm 0.00 in0.0 mm 0.02 in0.5 mm
08:34 PM 57.1°F13.9°C 58.9°F14.9°C 75% Calm Calm -- 29.89 in1012.2 mb 0.00 in0.0 mm 0.00 in0.0 mm 0.02 in0.5 mm
08:37 PM 56.8°F13.8°C 58.8°F14.9°C 75% Calm Calm -- 29.89 in1012.2 mb 0.00 in0.0 mm 0.00 in0.0 mm 0.02 in0.5 mm
08:40 PM 56.4°F13.6°C 58.9°F14.9°C 75% Calm Calm -- 29.89 in1012.2 mb 0.00 in0.0 mm 0.00 in0.0 mm 0.02 in0.5 mm
08:42 PM 56.3°F13.5°C 58.8°F14.9°C 75% Calm Calm -- 29.89 in1012.2 mb 0.00 in0.0 mm 0.00 in0.0 mm 0.02 in0.5 mm
08:43 PM 56.3°F13.5°C 59.0°F15.0°C 75% 0.7 mph W1.1 kmh W 0.7 mph1.1 kmh 29.89 in1012.2 mb 0.00 in0.0 mm 0.00 in0.0 mm 0.02 in0.5 mm
08:46 PM 56.2°F13.4°C 58.7°F14.8°C 75% Calm Calm -- 29.89 in1012.2 mb 0.00 in0.0 mm 0.00 in0.0 mm 0.02 in0.5 mm
08:49 PM 55.9°F13.3°C 58.3°F14.6°C 75% Calm Calm -- 29.90 in1012.5 mb 0.00 in0.0 mm 0.00 in0.0 mm 0.02 in0.5 mm
08:52 PM 55.4°F13.0°C 58.6°F14.8°C 75% Calm Calm -- 29.90 in1012.5 mb 0.00 in0.0 mm 0.00 in0.0 mm 0.02 in0.5 mm
08:55 PM 55.2°F12.9°C 58.0°F14.4°C 75% Calm Calm -- 29.90 in1012.5 mb 0.00 in0.0 mm 0.00 in0.0 mm 0.02 in0.5 mm
08:57 PM 54.7°F12.6°C 57.8°F14.3°C 75% Calm Calm -- 29.90 in1012.5 mb 0.00 in0.0 mm 0.00 in0.0 mm 0.02 in0.5 mm
08:58 PM 55.0°F12.8°C 58.1°F14.5°C 75% Calm Calm -- 29.90 in1012.5 mb 0.00 in0.0 mm 0.00 in0.0 mm 0.02 in0.5 mm
09:01 PM 54.4°F12.4°C 57.8°F14.3°C 75% Calm Calm -- 29.90 in1012.5 mb 0.00 in0.0 mm 0.00 in0.0 mm 0.02 in0.5 mm
09:03 PM 54.6°F12.6°C 58.0°F14.4°C 76% Calm Calm -- 29.90 in1012.5 mb 0.00 in0.0 mm 0.00 in0.0 mm 0.02 in0.5 mm
09:04 PM 54.5°F12.5°C 57.8°F14.3°C 75% Calm Calm -- 29.90 in1012.5 mb 0.00 in0.0 mm 0.00 in0.0 mm 0.02 in0.5 mm
09:07 PM 54.7°F12.6°C 57.6°F14.2°C 76% Calm Calm -- 29.91 in1012.9 mb 0.00 in0.0 mm 0.00 in0.0 mm 0.02 in0.5 mm
09:10 PM 54.7°F12.6°C 58.1°F14.5°C 77% Calm Calm -- 29.92 in1013.2 mb 0.00 in0.0 mm 0.00 in0.0 mm 0.02 in0.5 mm
09:13 PM 55.0°F12.8°C 58.1°F14.5°C 77% 1.2 mph NNW1.9 kmh NNW 1.2 mph1.9 kmh 29.92 in1013.2 mb 0.00 in0.0 mm 0.00 in0.0 mm 0.02 in0.5 mm
09:16 PM 55.2°F12.9°C 58.3°F14.6°C 77% Calm Calm -- 29.92 in1013.2 mb 0.00 in0.0 mm 0.00 in0.0 mm 0.02 in0.5 mm
09:19 PM 54.7°F12.6°C 58.3°F14.6°C 78% Calm Calm -- 29.92 in1013.2 mb 0.00 in0.0 mm 0.00 in0.0 mm 0.02 in0.5 mm
09:21 PM 54.8°F12.7°C 58.0°F14.4°C 77% 0.4 mph S0.6 kmh S 0.4 mph0.6 kmh 29.92 in1013.2 mb 0.00 in0.0 mm 0.00 in0.0 mm 0.02 in0.5 mm
09:22 PM 54.7°F12.6°C 58.2°F14.6°C 77% 0.7 mph S1.1 kmh S 0.7 mph1.1 kmh 29.92 in1013.2 mb 0.00 in0.0 mm 0.00 in0.0 mm 0.02 in0.5 mm
09:25 PM 55.2°F12.9°C 57.9°F14.4°C 77% Calm Calm -- 29.92 in1013.2 mb 0.00 in0.0 mm 0.00 in0.0 mm 0.02 in0.5 mm
09:27 PM 55.4°F13.0°C 58.7°F14.8°C 79% Calm Calm -- 29.92 in1013.2 mb 0.00 in0.0 mm 0.00 in0.0 mm 0.02 in0.5 mm
09:28 PM 55.4°F13.0°C 58.8°F14.9°C 79% Calm Calm -- 29.92 in1013.2 mb 0.00 in0.0 mm 0.00 in0.0 mm 0.02 in0.5 mm
09:31 PM 55.2°F12.9°C 58.4°F14.7°C 78% 1.2 mph ESE1.9 kmh ESE 1.2 mph1.9 kmh 29.92 in1013.2 mb 0.00 in0.0 mm 0.00 in0.0 mm 0.02 in0.5 mm
09:33 PM 55.3°F12.9°C 58.5°F14.7°C 79% Calm Calm -- 29.91 in1012.9 mb 0.00 in0.0 mm 0.00 in0.0 mm 0.02 in0.5 mm
09:34 PM 55.3°F12.9°C 58.4°F14.7°C 79% Calm Calm -- 29.91 in1012.9 mb 0.00 in0.0 mm 0.00 in0.0 mm 0.02 in0.5 mm
09:37 PM 55.4°F13.0°C 58.5°F14.7°C 79% 1.2 mph ESE1.9 kmh ESE 1.2 mph1.9 kmh 29.92 in1013.2 mb 0.00 in0.0 mm 0.00 in0.0 mm 0.02 in0.5 mm
09:40 PM 55.5°F13.1°C 58.6°F14.8°C 79% Calm Calm -- 29.91 in1012.9 mb 0.00 in0.0 mm 0.00 in0.0 mm 0.02 in0.5 mm
09:43 PM 55.4°F13.0°C 58.7°F14.8°C 80% Calm Calm -- 29.90 in1012.5 mb 0.00 in0.0 mm 0.00 in0.0 mm 0.02 in0.5 mm
09:46 PM 55.4°F13.0°C 58.6°F14.8°C 79% Calm Calm -- 29.90 in1012.5 mb 0.00 in0.0 mm 0.00 in0.0 mm 0.02 in0.5 mm
09:49 PM 55.4°F13.0°C 58.6°F14.8°C 79% Calm Calm -- 29.90 in1012.5 mb 0.00 in0.0 mm 0.00 in0.0 mm 0.02 in0.5 mm
09:51 PM 55.3°F12.9°C 58.5°F14.7°C 79% Calm Calm -- 29.90 in1012.5 mb 0.00 in0.0 mm 0.00 in0.0 mm 0.02 in0.5 mm
09:52 PM 55.1°F12.8°C 58.6°F14.8°C 79% Calm Calm -- 29.90 in1012.5 mb 0.00 in0.0 mm 0.00 in0.0 mm 0.02 in0.5 mm
09:54 PM 55.5°F13.1°C 58.5°F14.7°C 79% 1.2 mph SW1.9 kmh SW 1.2 mph1.9 kmh 29.92 in1013.2 mb 0.00 in0.0 mm 0.00 in0.0 mm 0.02 in0.5 mm
09:55 PM 55.3°F12.9°C 58.7°F14.8°C 80% 0.9 mph SW1.4 kmh SW 1.0 mph1.6 kmh 29.92 in1013.2 mb 0.00 in0.0 mm 0.00 in0.0 mm 0.02 in0.5 mm
09:57 PM 55.5°F13.1°C 58.8°F14.9°C 81% Calm Calm -- 29.92 in1013.2 mb 0.00 in0.0 mm 0.00 in0.0 mm 0.02 in0.5 mm
09:58 PM 55.2°F12.9°C 58.8°F14.9°C 80% Calm Calm -- 29.92 in1013.2 mb 0.00 in0.0 mm 0.00 in0.0 mm 0.02 in0.5 mm
10:01 PM 55.5°F13.1°C 58.9°F14.9°C 81% Calm Calm -- 29.92 in1013.2 mb 0.00 in0.0 mm 0.00 in0.0 mm 0.02 in0.5 mm
10:04 PM 55.6°F13.1°C 59.0°F15.0°C 82% Calm Calm -- 29.93 in1013.5 mb 0.00 in0.0 mm 0.00 in0.0 mm 0.02 in0.5 mm
10:06 PM 55.6°F13.1°C 59.1°F15.1°C 82% Calm Calm -- 29.93 in1013.5 mb 0.00 in0.0 mm 0.00 in0.0 mm 0.02 in0.5 mm
10:07 PM 55.3°F12.9°C 59.2°F15.1°C 82% Calm Calm -- 29.93 in1013.5 mb 0.00 in0.0 mm 0.00 in0.0 mm 0.02 in0.5 mm
10:10 PM 55.6°F13.1°C 59.1°F15.1°C 82% Calm Calm -- 29.93 in1013.5 mb 0.00 in0.0 mm 0.00 in0.0 mm 0.02 in0.5 mm
10:13 PM 55.6°F13.1°C 59.1°F15.1°C 83% Calm Calm -- 29.94 in1013.9 mb 0.00 in0.0 mm 0.00 in0.0 mm 0.02 in0.5 mm
10:16 PM 55.6°F13.1°C 59.2°F15.1°C 83% Calm Calm -- 29.94 in1013.9 mb 0.00 in0.0 mm 0.00 in0.0 mm 0.02 in0.5 mm
10:19 PM 55.6°F13.1°C 59.1°F15.1°C 83% Calm Calm -- 29.94 in1013.9 mb 0.00 in0.0 mm 0.00 in0.0 mm 0.02 in0.5 mm
10:22 PM 55.9°F13.3°C 59.0°F15.0°C 83% 2.8 mph SE4.5 kmh SE 2.8 mph4.5 kmh 29.94 in1013.9 mb 0.00 in0.0 mm 0.00 in0.0 mm 0.02 in0.5 mm
10:24 PM 55.5°F13.1°C 59.0°F15.0°C 83% Calm Calm -- 29.95 in1014.2 mb 0.00 in0.0 mm 0.00 in0.0 mm 0.02 in0.5 mm
10:25 PM 56.0°F13.3°C 59.1°F15.1°C 83% Calm Calm -- 29.95 in1014.2 mb 0.00 in0.0 mm 0.00 in0.0 mm 0.02 in0.5 mm
10:27 PM 56.1°F13.4°C 59.0°F15.0°C 82% Calm Calm -- 29.96 in1014.6 mb 0.00 in0.0 mm 0.00 in0.0 mm 0.02 in0.5 mm
10:28 PM 55.7°F13.2°C 59.2°F15.1°C 83% Calm Calm -- 29.96 in1014.6 mb 0.00 in0.0 mm 0.00 in0.0 mm 0.02 in0.5 mm
10:31 PM 56.0°F13.3°C 59.3°F15.2°C 84% Calm Calm -- 29.96 in1014.6 mb 0.00 in0.0 mm 0.00 in0.0 mm 0.02 in0.5 mm
10:33 PM 56.0°F13.3°C 59.2°F15.1°C 84% 1.6 mph SE2.6 kmh SE 1.6 mph2.6 kmh 29.96 in1014.6 mb 0.00 in0.0 mm 0.00 in0.0 mm 0.02 in0.5 mm
10:34 PM 56.1°F13.4°C 59.3°F15.2°C 84% 0.7 mph SE1.1 kmh SE 0.7 mph1.1 kmh 29.96 in1014.6 mb 0.00 in0.0 mm 0.00 in0.0 mm 0.02 in0.5 mm
10:37 PM 56.0°F13.3°C 59.1°F15.1°C 84% Calm Calm -- 29.97 in1014.9 mb 0.00 in0.0 mm 0.00 in0.0 mm 0.02 in0.5 mm
10:40 PM 55.4°F13.0°C 59.1°F15.1°C 83% 2.7 mph ESE4.3 kmh ESE 2.7 mph4.3 kmh 29.95 in1014.2 mb 0.00 in0.0 mm 0.00 in0.0 mm 0.02 in0.5 mm
10:42 PM 55.7°F13.2°C 59.0°F15.0°C 83% Calm Calm -- 29.96 in1014.6 mb 0.00 in0.0 mm 0.00 in0.0 mm 0.02 in0.5 mm
10:43 PM 55.4°F13.0°C 59.1°F15.1°C 84% Calm Calm -- 29.96 in1014.6 mb 0.00 in0.0 mm 0.00 in0.0 mm 0.02 in0.5 mm
10:46 PM 55.9°F13.3°C 59.0°F15.0°C 83% 1.2 mph ESE1.9 kmh ESE 1.2 mph1.9 kmh 29.95 in1014.2 mb 0.00 in0.0 mm 0.00 in0.0 mm 0.02 in0.5 mm
10:48 PM 55.9°F13.3°C 59.0°F15.0°C 84% 0.8 mph ESE1.3 kmh ESE 0.8 mph1.3 kmh 29.94 in1013.9 mb 0.00 in0.0 mm 0.00 in0.0 mm 0.02 in0.5 mm
10:49 PM 55.5°F13.1°C 59.0°F15.0°C 83% 0.7 mph E1.1 kmh E 0.8 mph1.3 kmh 29.94 in1013.9 mb 0.00 in0.0 mm 0.00 in0.0 mm 0.02 in0.5 mm
10:52 PM 55.9°F13.3°C 59.0°F15.0°C 83% Calm Calm -- 29.94 in1013.9 mb 0.00 in0.0 mm 0.00 in0.0 mm 0.02 in0.5 mm
10:55 PM 56.0°F13.3°C 59.1°F15.1°C 84% 1.2 mph SE1.9 kmh SE 1.2 mph1.9 kmh 29.94 in1013.9 mb 0.00 in0.0 mm 0.00 in0.0 mm 0.02 in0.5 mm
10:57 PM 55.9°F13.3°C 58.8°F14.9°C 83% 1.6 mph ESE2.6 kmh ESE 1.6 mph2.6 kmh 29.94 in1013.9 mb 0.00 in0.0 mm 0.00 in0.0 mm 0.02 in0.5 mm
10:58 PM 55.7°F13.2°C 58.8°F14.9°C 82% 1.2 mph SE1.9 kmh SE 1.2 mph1.9 kmh 29.94 in1013.9 mb 0.00 in0.0 mm 0.00 in0.0 mm 0.02 in0.5 mm
11:01 PM 55.9°F13.3°C 59.0°F15.0°C 83% Calm Calm -- 29.94 in1013.9 mb 0.00 in0.0 mm 0.00 in0.0 mm 0.00 in0.0 mm
11:04 PM 55.9°F13.3°C 59.1°F15.1°C 83% 1.6 mph SE2.6 kmh SE 1.6 mph2.6 kmh 29.93 in1013.5 mb 0.00 in0.0 mm 0.00 in0.0 mm 0.00 in0.0 mm
11:07 PM 56.0°F13.3°C 58.9°F14.9°C 83% 2.4 mph W3.9 kmh W 2.4 mph3.9 kmh 29.95 in1014.2 mb 0.00 in0.0 mm 0.00 in0.0 mm 0.00 in0.0 mm
11:10 PM 56.1°F13.4°C 58.8°F14.9°C 83% Calm Calm -- 29.94 in1013.9 mb 0.00 in0.0 mm 0.00 in0.0 mm 0.00 in0.0 mm
11:13 PM 56.2°F13.4°C 59.1°F15.1°C 83% Calm Calm -- 29.94 in1013.9 mb 0.00 in0.0 mm 0.00 in0.0 mm 0.00 in0.0 mm
11:16 PM 56.1°F13.4°C 58.8°F14.9°C 82% Calm Calm -- 29.94 in1013.9 mb 0.00 in0.0 mm 0.00 in0.0 mm 0.00 in0.0 mm
11:19 PM 56.0°F13.3°C 59.1°F15.1°C 84% Calm Calm -- 29.93 in1013.5 mb 0.00 in0.0 mm 0.00 in0.0 mm 0.00 in0.0 mm
11:22 PM 55.9°F13.3°C 59.3°F15.2°C 84% 0.8 mph SE1.3 kmh SE 0.8 mph1.3 kmh 29.92 in1013.2 mb 0.00 in0.0 mm 0.00 in0.0 mm 0.00 in0.0 mm
11:25 PM 55.9°F13.3°C 59.1°F15.1°C 83% 1.6 mph W2.6 kmh W 1.6 mph2.6 kmh 29.93 in1013.5 mb 0.00 in0.0 mm 0.00 in0.0 mm 0.00 in0.0 mm
11:28 PM 55.5°F13.1°C 58.7°F14.8°C 82% Calm Calm -- 29.93 in1013.5 mb 0.00 in0.0 mm 0.00 in0.0 mm 0.00 in0.0 mm
11:30 PM 55.7°F13.2°C 58.9°F14.9°C 83% 0.8 mph 1.3 kmh 0.8 mph1.3 kmh 29.94 in1013.9 mb 0.00 in0.0 mm 0.00 in0.0 mm 0.00 in0.0 mm
11:31 PM 55.6°F13.1°C 58.7°F14.8°C 82% 0.9 mph NNW1.4 kmh NNW 1.0 mph1.6 kmh 29.93 in1013.5 mb 0.00 in0.0 mm 0.00 in0.0 mm 0.00 in0.0 mm
11:34 PM 55.9°F13.3°C 58.9°F14.9°C 83% 1.6 mph WNW2.6 kmh WNW 1.6 mph2.6 kmh 29.94 in1013.9 mb 0.00 in0.0 mm 0.00 in0.0 mm 0.00 in0.0 mm
11:37 PM 55.9°F13.3°C 58.8°F14.9°C 82% 1.2 mph NW1.9 kmh NW 1.2 mph1.9 kmh 29.94 in1013.9 mb 0.00 in0.0 mm 0.00 in0.0 mm 0.00 in0.0 mm
11:40 PM 55.9°F13.3°C 58.9°F14.9°C 83% 0.4 mph NNW0.6 kmh NNW 0.4 mph0.6 kmh 29.94 in1013.9 mb 0.00 in0.0 mm 0.00 in0.0 mm 0.00 in0.0 mm
11:42 PM 55.7°F13.2°C 58.6°F14.8°C 82% 0.8 mph WNW1.3 kmh WNW 0.8 mph1.3 kmh 29.94 in1013.9 mb 0.00 in0.0 mm 0.00 in0.0 mm 0.00 in0.0 mm
11:43 PM 55.6°F13.1°C 58.6°F14.8°C 82% 0.7 mph W1.1 kmh W 0.8 mph1.3 kmh 29.94 in1013.9 mb 0.00 in0.0 mm 0.00 in0.0 mm 0.00 in0.0 mm
11:45 PM 55.6°F13.1°C 58.8°F14.9°C 82% 1.2 mph NW1.9 kmh NW 1.2 mph1.9 kmh 29.94 in1013.9 mb 0.00 in0.0 mm 0.00 in0.0 mm 0.00 in0.0 mm
11:46 PM 55.6°F13.1°C 58.6°F14.8°C 82% 2.1 mph NW3.4 kmh NW 2.1 mph3.4 kmh 29.94 in1013.9 mb 0.00 in0.0 mm 0.00 in0.0 mm 0.00 in0.0 mm
11:49 PM 55.7°F13.2°C 58.3°F14.6°C 82% 0.4 mph NNW0.6 kmh NNW 0.4 mph0.6 kmh 29.94 in1013.9 mb 0.00 in0.0 mm 0.00 in0.0 mm 0.00 in0.0 mm
11:52 PM 55.6°F13.1°C 58.6°F14.8°C 82% Calm Calm -- 29.94 in1013.9 mb 0.00 in0.0 mm 0.00 in0.0 mm 0.00 in0.0 mm
11:55 PM 55.5°F13.1°C 58.5°F14.7°C 82% Calm Calm -- 29.94 in1013.9 mb 0.00 in0.0 mm 0.00 in0.0 mm 0.00 in0.0 mm
11:58 PM 55.5°F13.1°C 58.6°F14.8°C 82% Calm Calm -- 29.94 in1013.9 mb 0.00 in0.0 mm 0.00 in0.0 mm 0.00 in0.0 mm